<?xml version="1.0" encoding="UTF-8" standalone="no" ?>
<gpx xmlns="http://www.topografix.com/GPX/1/1" xmlns:xsi="http://www.w3.org/2001/XMLSchema-instance" xsi:schemaLocation="http://www.topografix.com/GPX/1/1 http://www.topografix.com/GPX/1/1/gpx.xsd" version="1.1" creator="VisuGPX - https://www.visugpx.com">
  <metadata>
    <name>RSPFY-poteau-Poterie-poteau-des-Bruyères</name>
    <desc><![CDATA[marche nordique dans le bois de Rochefort en partant du poteau de la Poterie et passant par le poteau des Bruyères et la Fontaine Sainte-Anne.]]></desc>
  </metadata>
  <trk>
    <name><![CDATA[2024-01-23 08:58]]></name>
    <desc><![CDATA[<p>Heure de départ: 08:58 23 janv. 2024<br/>Heure d'arrivée: 11:34 23 janv. 2024<br/>Distance: 11,5 km (02:35)<br/>Temps déplacement: 02:11<br/>Vitesse moyenne: 4,42 km/h<br/>Vitesse moyenne mouv.: 5,25 km/h<br/>Vitesse Max.: 7,81 km/h<br/>Altitude minimale: 94 m<br/>Altitude maximale: 183 m<br/>Vitesse de montée: 245,7 m/h<br/>Vitesse de descente: -287 m/h<br/>Gain d'altitude: 326 m<br/>Perte d'altitude: -337 m<br/>Temps de montée: 01:19<br/>Temps de descente: 01:10<br/></p><hr align="center" width="480" style="height: 2px; width: 517px"/>]]></desc>
    <trkseg>
      <trkpt lat="48.607" lon="1.94979">
        <ele>111</ele>
        <time>2024-01-23T07:58:49Z</time>
      </trkpt>
      <trkpt lat="48.6069" lon="1.94975">
        <ele>111</ele>
        <time>2024-01-23T07:58:59Z</time>
      </trkpt>
      <trkpt lat="48.60683" lon="1.94967">
        <ele>111</ele>
        <time>2024-01-23T08:00:36Z</time>
      </trkpt>
      <trkpt lat="48.60673" lon="1.94967">
        <ele>111</ele>
        <time>2024-01-23T08:00:44Z</time>
      </trkpt>
      <trkpt lat="48.60663" lon="1.94966">
        <ele>111</ele>
        <time>2024-01-23T08:00:52Z</time>
      </trkpt>
      <trkpt lat="48.60653" lon="1.94966">
        <ele>111</ele>
        <time>2024-01-23T08:00:59Z</time>
      </trkpt>
      <trkpt lat="48.60642" lon="1.94971">
        <ele>111</ele>
        <time>2024-01-23T08:01:06Z</time>
      </trkpt>
      <trkpt lat="48.60633" lon="1.94974">
        <ele>111.2</ele>
        <time>2024-01-23T08:01:13Z</time>
      </trkpt>
      <trkpt lat="48.60624" lon="1.94979">
        <ele>111.4</ele>
        <time>2024-01-23T08:01:19Z</time>
      </trkpt>
      <trkpt lat="48.60615" lon="1.94983">
        <ele>111.5</ele>
        <time>2024-01-23T08:01:27Z</time>
      </trkpt>
      <trkpt lat="48.60606" lon="1.94988">
        <ele>111.5</ele>
        <time>2024-01-23T08:01:34Z</time>
      </trkpt>
      <trkpt lat="48.60595" lon="1.94988">
        <ele>111.8</ele>
        <time>2024-01-23T08:01:43Z</time>
      </trkpt>
      <trkpt lat="48.60585" lon="1.94992">
        <ele>112</ele>
        <time>2024-01-23T08:01:50Z</time>
      </trkpt>
      <trkpt lat="48.60576" lon="1.94997">
        <ele>112</ele>
        <time>2024-01-23T08:01:56Z</time>
      </trkpt>
      <trkpt lat="48.60568" lon="1.95003">
        <ele>112</ele>
        <time>2024-01-23T08:02:03Z</time>
      </trkpt>
      <trkpt lat="48.60558" lon="1.95008">
        <ele>112</ele>
        <time>2024-01-23T08:02:10Z</time>
      </trkpt>
      <trkpt lat="48.60549" lon="1.95014">
        <ele>112</ele>
        <time>2024-01-23T08:02:17Z</time>
      </trkpt>
      <trkpt lat="48.60539" lon="1.9502">
        <ele>112</ele>
        <time>2024-01-23T08:02:24Z</time>
      </trkpt>
      <trkpt lat="48.6053" lon="1.95025">
        <ele>112</ele>
        <time>2024-01-23T08:02:30Z</time>
      </trkpt>
      <trkpt lat="48.60521" lon="1.95029">
        <ele>112</ele>
        <time>2024-01-23T08:02:36Z</time>
      </trkpt>
      <trkpt lat="48.6051" lon="1.95034">
        <ele>112</ele>
        <time>2024-01-23T08:02:43Z</time>
      </trkpt>
      <trkpt lat="48.60501" lon="1.95038">
        <ele>112</ele>
        <time>2024-01-23T08:02:49Z</time>
      </trkpt>
      <trkpt lat="48.60492" lon="1.95044">
        <ele>112</ele>
        <time>2024-01-23T08:02:56Z</time>
      </trkpt>
      <trkpt lat="48.60483" lon="1.95047">
        <ele>112</ele>
        <time>2024-01-23T08:03:04Z</time>
      </trkpt>
      <trkpt lat="48.60474" lon="1.95052">
        <ele>112</ele>
        <time>2024-01-23T08:03:10Z</time>
      </trkpt>
      <trkpt lat="48.60464" lon="1.95057">
        <ele>112.3</ele>
        <time>2024-01-23T08:03:17Z</time>
      </trkpt>
      <trkpt lat="48.60455" lon="1.95062">
        <ele>112.5</ele>
        <time>2024-01-23T08:03:24Z</time>
      </trkpt>
      <trkpt lat="48.60445" lon="1.95068">
        <ele>112.6</ele>
        <time>2024-01-23T08:03:32Z</time>
      </trkpt>
      <trkpt lat="48.60436" lon="1.95073">
        <ele>112.6</ele>
        <time>2024-01-23T08:03:38Z</time>
      </trkpt>
      <trkpt lat="48.60426" lon="1.95079">
        <ele>112.7</ele>
        <time>2024-01-23T08:03:44Z</time>
      </trkpt>
      <trkpt lat="48.60418" lon="1.95086">
        <ele>113</ele>
        <time>2024-01-23T08:03:50Z</time>
      </trkpt>
      <trkpt lat="48.60408" lon="1.95091">
        <ele>113</ele>
        <time>2024-01-23T08:03:57Z</time>
      </trkpt>
      <trkpt lat="48.604" lon="1.95095">
        <ele>113</ele>
        <time>2024-01-23T08:04:03Z</time>
      </trkpt>
      <trkpt lat="48.60391" lon="1.95099">
        <ele>113</ele>
        <time>2024-01-23T08:04:10Z</time>
      </trkpt>
      <trkpt lat="48.60382" lon="1.95103">
        <ele>113</ele>
        <time>2024-01-23T08:04:17Z</time>
      </trkpt>
      <trkpt lat="48.60373" lon="1.9511">
        <ele>113</ele>
        <time>2024-01-23T08:04:24Z</time>
      </trkpt>
      <trkpt lat="48.60364" lon="1.95114">
        <ele>113</ele>
        <time>2024-01-23T08:04:32Z</time>
      </trkpt>
      <trkpt lat="48.60354" lon="1.95119">
        <ele>113</ele>
        <time>2024-01-23T08:04:40Z</time>
      </trkpt>
      <trkpt lat="48.60345" lon="1.95124">
        <ele>113</ele>
        <time>2024-01-23T08:04:48Z</time>
      </trkpt>
      <trkpt lat="48.60337" lon="1.95131">
        <ele>113</ele>
        <time>2024-01-23T08:04:55Z</time>
      </trkpt>
      <trkpt lat="48.60327" lon="1.95133">
        <ele>113</ele>
        <time>2024-01-23T08:05:02Z</time>
      </trkpt>
      <trkpt lat="48.60317" lon="1.95136">
        <ele>113</ele>
        <time>2024-01-23T08:05:09Z</time>
      </trkpt>
      <trkpt lat="48.60308" lon="1.95138">
        <ele>113</ele>
        <time>2024-01-23T08:05:16Z</time>
      </trkpt>
      <trkpt lat="48.60299" lon="1.95142">
        <ele>113</ele>
        <time>2024-01-23T08:05:23Z</time>
      </trkpt>
      <trkpt lat="48.60291" lon="1.95149">
        <ele>113</ele>
        <time>2024-01-23T08:05:30Z</time>
      </trkpt>
      <trkpt lat="48.60281" lon="1.95153">
        <ele>113</ele>
        <time>2024-01-23T08:05:39Z</time>
      </trkpt>
      <trkpt lat="48.60273" lon="1.9516">
        <ele>113</ele>
        <time>2024-01-23T08:05:46Z</time>
      </trkpt>
      <trkpt lat="48.60264" lon="1.95165">
        <ele>113</ele>
        <time>2024-01-23T08:05:52Z</time>
      </trkpt>
      <trkpt lat="48.60255" lon="1.95169">
        <ele>113</ele>
        <time>2024-01-23T08:05:58Z</time>
      </trkpt>
      <trkpt lat="48.60247" lon="1.95173">
        <ele>113</ele>
        <time>2024-01-23T08:06:05Z</time>
      </trkpt>
      <trkpt lat="48.60237" lon="1.95176">
        <ele>113</ele>
        <time>2024-01-23T08:06:13Z</time>
      </trkpt>
      <trkpt lat="48.60228" lon="1.9518">
        <ele>113</ele>
        <time>2024-01-23T08:06:21Z</time>
      </trkpt>
      <trkpt lat="48.60219" lon="1.95184">
        <ele>113</ele>
        <time>2024-01-23T08:06:29Z</time>
      </trkpt>
      <trkpt lat="48.60209" lon="1.95187">
        <ele>113.1</ele>
        <time>2024-01-23T08:06:36Z</time>
      </trkpt>
      <trkpt lat="48.602" lon="1.95193">
        <ele>113</ele>
        <time>2024-01-23T08:06:42Z</time>
      </trkpt>
      <trkpt lat="48.6019" lon="1.95196">
        <ele>113</ele>
        <time>2024-01-23T08:06:50Z</time>
      </trkpt>
      <trkpt lat="48.60181" lon="1.952">
        <ele>113</ele>
        <time>2024-01-23T08:06:57Z</time>
      </trkpt>
      <trkpt lat="48.60173" lon="1.95207">
        <ele>113</ele>
        <time>2024-01-23T08:07:04Z</time>
      </trkpt>
      <trkpt lat="48.60164" lon="1.95212">
        <ele>113</ele>
        <time>2024-01-23T08:07:10Z</time>
      </trkpt>
      <trkpt lat="48.60155" lon="1.95218">
        <ele>113</ele>
        <time>2024-01-23T08:07:16Z</time>
      </trkpt>
      <trkpt lat="48.60147" lon="1.95223">
        <ele>113</ele>
        <time>2024-01-23T08:07:22Z</time>
      </trkpt>
      <trkpt lat="48.60138" lon="1.95228">
        <ele>113</ele>
        <time>2024-01-23T08:07:28Z</time>
      </trkpt>
      <trkpt lat="48.60128" lon="1.95231">
        <ele>113</ele>
        <time>2024-01-23T08:07:37Z</time>
      </trkpt>
      <trkpt lat="48.60119" lon="1.95237">
        <ele>113</ele>
        <time>2024-01-23T08:07:45Z</time>
      </trkpt>
      <trkpt lat="48.60111" lon="1.95241">
        <ele>113</ele>
        <time>2024-01-23T08:07:52Z</time>
      </trkpt>
      <trkpt lat="48.60102" lon="1.95245">
        <ele>113</ele>
        <time>2024-01-23T08:08:00Z</time>
      </trkpt>
      <trkpt lat="48.60095" lon="1.95253">
        <ele>113</ele>
        <time>2024-01-23T08:08:08Z</time>
      </trkpt>
      <trkpt lat="48.60087" lon="1.95264">
        <ele>113</ele>
        <time>2024-01-23T08:08:17Z</time>
      </trkpt>
      <trkpt lat="48.6008" lon="1.95272">
        <ele>113</ele>
        <time>2024-01-23T08:08:24Z</time>
      </trkpt>
      <trkpt lat="48.60074" lon="1.95285">
        <ele>112.8</ele>
        <time>2024-01-23T08:08:35Z</time>
      </trkpt>
      <trkpt lat="48.6007" lon="1.95298">
        <ele>112.6</ele>
        <time>2024-01-23T08:08:49Z</time>
      </trkpt>
      <trkpt lat="48.60062" lon="1.95305">
        <ele>112.8</ele>
        <time>2024-01-23T08:09:02Z</time>
      </trkpt>
      <trkpt lat="48.60053" lon="1.95311">
        <ele>113</ele>
        <time>2024-01-23T08:09:09Z</time>
      </trkpt>
      <trkpt lat="48.60046" lon="1.9532">
        <ele>113</ele>
        <time>2024-01-23T08:09:18Z</time>
      </trkpt>
      <trkpt lat="48.60039" lon="1.95329">
        <ele>113</ele>
        <time>2024-01-23T08:09:26Z</time>
      </trkpt>
      <trkpt lat="48.60034" lon="1.9534">
        <ele>113</ele>
        <time>2024-01-23T08:09:34Z</time>
      </trkpt>
      <trkpt lat="48.60028" lon="1.95352">
        <ele>113</ele>
        <time>2024-01-23T08:09:42Z</time>
      </trkpt>
      <trkpt lat="48.60022" lon="1.95364">
        <ele>113.3</ele>
        <time>2024-01-23T08:09:51Z</time>
      </trkpt>
      <trkpt lat="48.60015" lon="1.95376">
        <ele>113.7</ele>
        <time>2024-01-23T08:09:59Z</time>
      </trkpt>
      <trkpt lat="48.60009" lon="1.95388">
        <ele>114</ele>
        <time>2024-01-23T08:10:05Z</time>
      </trkpt>
      <trkpt lat="48.60004" lon="1.954">
        <ele>114</ele>
        <time>2024-01-23T08:10:12Z</time>
      </trkpt>
      <trkpt lat="48.59999" lon="1.95412">
        <ele>114</ele>
        <time>2024-01-23T08:10:18Z</time>
      </trkpt>
      <trkpt lat="48.59994" lon="1.95425">
        <ele>114.2</ele>
        <time>2024-01-23T08:10:26Z</time>
      </trkpt>
      <trkpt lat="48.59988" lon="1.95436">
        <ele>114.4</ele>
        <time>2024-01-23T08:10:33Z</time>
      </trkpt>
      <trkpt lat="48.59982" lon="1.95448">
        <ele>114.8</ele>
        <time>2024-01-23T08:10:40Z</time>
      </trkpt>
      <trkpt lat="48.59978" lon="1.9546">
        <ele>115.4</ele>
        <time>2024-01-23T08:10:46Z</time>
      </trkpt>
      <trkpt lat="48.59972" lon="1.95473">
        <ele>116</ele>
        <time>2024-01-23T08:10:53Z</time>
      </trkpt>
      <trkpt lat="48.59966" lon="1.95485">
        <ele>116.9</ele>
        <time>2024-01-23T08:11:01Z</time>
      </trkpt>
      <trkpt lat="48.59961" lon="1.95498">
        <ele>117.7</ele>
        <time>2024-01-23T08:11:08Z</time>
      </trkpt>
      <trkpt lat="48.59957" lon="1.9551">
        <ele>118.5</ele>
        <time>2024-01-23T08:11:14Z</time>
      </trkpt>
      <trkpt lat="48.59951" lon="1.95522">
        <ele>119.3</ele>
        <time>2024-01-23T08:11:22Z</time>
      </trkpt>
      <trkpt lat="48.59945" lon="1.95533">
        <ele>120.2</ele>
        <time>2024-01-23T08:11:30Z</time>
      </trkpt>
      <trkpt lat="48.5994" lon="1.95545">
        <ele>120.5</ele>
        <time>2024-01-23T08:11:39Z</time>
      </trkpt>
      <trkpt lat="48.59934" lon="1.95557">
        <ele>120.7</ele>
        <time>2024-01-23T08:11:49Z</time>
      </trkpt>
      <trkpt lat="48.59929" lon="1.95568">
        <ele>120.7</ele>
        <time>2024-01-23T08:11:58Z</time>
      </trkpt>
      <trkpt lat="48.59922" lon="1.9558">
        <ele>120.9</ele>
        <time>2024-01-23T08:12:05Z</time>
      </trkpt>
      <trkpt lat="48.59917" lon="1.95592">
        <ele>121.3</ele>
        <time>2024-01-23T08:12:11Z</time>
      </trkpt>
      <trkpt lat="48.59913" lon="1.95605">
        <ele>121.6</ele>
        <time>2024-01-23T08:12:16Z</time>
      </trkpt>
      <trkpt lat="48.59908" lon="1.95616">
        <ele>121.9</ele>
        <time>2024-01-23T08:12:22Z</time>
      </trkpt>
      <trkpt lat="48.59901" lon="1.95628">
        <ele>122</ele>
        <time>2024-01-23T08:12:31Z</time>
      </trkpt>
      <trkpt lat="48.59896" lon="1.9564">
        <ele>122.3</ele>
        <time>2024-01-23T08:12:39Z</time>
      </trkpt>
      <trkpt lat="48.59891" lon="1.95652">
        <ele>122.6</ele>
        <time>2024-01-23T08:12:46Z</time>
      </trkpt>
      <trkpt lat="48.59885" lon="1.95664">
        <ele>122.6</ele>
        <time>2024-01-23T08:12:52Z</time>
      </trkpt>
      <trkpt lat="48.59879" lon="1.95675">
        <ele>122.4</ele>
        <time>2024-01-23T08:12:58Z</time>
      </trkpt>
      <trkpt lat="48.59873" lon="1.95686">
        <ele>122.3</ele>
        <time>2024-01-23T08:13:06Z</time>
      </trkpt>
      <trkpt lat="48.59866" lon="1.95698">
        <ele>122.3</ele>
        <time>2024-01-23T08:13:13Z</time>
      </trkpt>
      <trkpt lat="48.59861" lon="1.9571">
        <ele>122.6</ele>
        <time>2024-01-23T08:13:21Z</time>
      </trkpt>
      <trkpt lat="48.59856" lon="1.95724">
        <ele>122.8</ele>
        <time>2024-01-23T08:13:29Z</time>
      </trkpt>
      <trkpt lat="48.59851" lon="1.95734">
        <ele>122.8</ele>
        <time>2024-01-23T08:13:36Z</time>
      </trkpt>
      <trkpt lat="48.59845" lon="1.95746">
        <ele>122.9</ele>
        <time>2024-01-23T08:13:43Z</time>
      </trkpt>
      <trkpt lat="48.5984" lon="1.95758">
        <ele>123.1</ele>
        <time>2024-01-23T08:13:50Z</time>
      </trkpt>
      <trkpt lat="48.59834" lon="1.95769">
        <ele>123</ele>
        <time>2024-01-23T08:13:56Z</time>
      </trkpt>
      <trkpt lat="48.59827" lon="1.95781">
        <ele>123.1</ele>
        <time>2024-01-23T08:14:04Z</time>
      </trkpt>
      <trkpt lat="48.59821" lon="1.95793">
        <ele>123.3</ele>
        <time>2024-01-23T08:14:11Z</time>
      </trkpt>
      <trkpt lat="48.59816" lon="1.95806">
        <ele>123.4</ele>
        <time>2024-01-23T08:14:21Z</time>
      </trkpt>
      <trkpt lat="48.59814" lon="1.9582">
        <ele>123.8</ele>
        <time>2024-01-23T08:14:31Z</time>
      </trkpt>
      <trkpt lat="48.59809" lon="1.95832">
        <ele>124.1</ele>
        <time>2024-01-23T08:14:37Z</time>
      </trkpt>
      <trkpt lat="48.59802" lon="1.95844">
        <ele>124.4</ele>
        <time>2024-01-23T08:14:44Z</time>
      </trkpt>
      <trkpt lat="48.59796" lon="1.95856">
        <ele>124.8</ele>
        <time>2024-01-23T08:14:51Z</time>
      </trkpt>
      <trkpt lat="48.5979" lon="1.95869">
        <ele>125.4</ele>
        <time>2024-01-23T08:14:58Z</time>
      </trkpt>
      <trkpt lat="48.59784" lon="1.95879">
        <ele>125.8</ele>
        <time>2024-01-23T08:15:03Z</time>
      </trkpt>
      <trkpt lat="48.59778" lon="1.95891">
        <ele>126.1</ele>
        <time>2024-01-23T08:15:08Z</time>
      </trkpt>
      <trkpt lat="48.59772" lon="1.95901">
        <ele>126.2</ele>
        <time>2024-01-23T08:15:13Z</time>
      </trkpt>
      <trkpt lat="48.59766" lon="1.95914">
        <ele>126.5</ele>
        <time>2024-01-23T08:15:20Z</time>
      </trkpt>
      <trkpt lat="48.5976" lon="1.95927">
        <ele>126.9</ele>
        <time>2024-01-23T08:15:26Z</time>
      </trkpt>
      <trkpt lat="48.59754" lon="1.95938">
        <ele>127.6</ele>
        <time>2024-01-23T08:15:32Z</time>
      </trkpt>
      <trkpt lat="48.59747" lon="1.9595">
        <ele>128.1</ele>
        <time>2024-01-23T08:15:38Z</time>
      </trkpt>
      <trkpt lat="48.59742" lon="1.95963">
        <ele>128.4</ele>
        <time>2024-01-23T08:15:45Z</time>
      </trkpt>
      <trkpt lat="48.59736" lon="1.95975">
        <ele>128.6</ele>
        <time>2024-01-23T08:15:52Z</time>
      </trkpt>
      <trkpt lat="48.59731" lon="1.95986">
        <ele>128.8</ele>
        <time>2024-01-23T08:15:59Z</time>
      </trkpt>
      <trkpt lat="48.59728" lon="1.96001">
        <ele>129.2</ele>
        <time>2024-01-23T08:16:09Z</time>
      </trkpt>
      <trkpt lat="48.59723" lon="1.96013">
        <ele>129.5</ele>
        <time>2024-01-23T08:16:16Z</time>
      </trkpt>
      <trkpt lat="48.59719" lon="1.96026">
        <ele>129.8</ele>
        <time>2024-01-23T08:16:24Z</time>
      </trkpt>
      <trkpt lat="48.59713" lon="1.96038">
        <ele>130.1</ele>
        <time>2024-01-23T08:16:31Z</time>
      </trkpt>
      <trkpt lat="48.59707" lon="1.96049">
        <ele>130.6</ele>
        <time>2024-01-23T08:16:37Z</time>
      </trkpt>
      <trkpt lat="48.59702" lon="1.96062">
        <ele>131.6</ele>
        <time>2024-01-23T08:16:44Z</time>
      </trkpt>
      <trkpt lat="48.59696" lon="1.96074">
        <ele>133</ele>
        <time>2024-01-23T08:16:52Z</time>
      </trkpt>
      <trkpt lat="48.5969" lon="1.96086">
        <ele>134.2</ele>
        <time>2024-01-23T08:16:59Z</time>
      </trkpt>
      <trkpt lat="48.59684" lon="1.96098">
        <ele>135</ele>
        <time>2024-01-23T08:17:06Z</time>
      </trkpt>
      <trkpt lat="48.59678" lon="1.9611">
        <ele>135.9</ele>
        <time>2024-01-23T08:17:13Z</time>
      </trkpt>
      <trkpt lat="48.59671" lon="1.96121">
        <ele>136.7</ele>
        <time>2024-01-23T08:17:21Z</time>
      </trkpt>
      <trkpt lat="48.59664" lon="1.96132">
        <ele>137.4</ele>
        <time>2024-01-23T08:17:29Z</time>
      </trkpt>
      <trkpt lat="48.59658" lon="1.96145">
        <ele>138.4</ele>
        <time>2024-01-23T08:17:36Z</time>
      </trkpt>
      <trkpt lat="48.59653" lon="1.96158">
        <ele>139.6</ele>
        <time>2024-01-23T08:17:44Z</time>
      </trkpt>
      <trkpt lat="48.59648" lon="1.96171">
        <ele>140.8</ele>
        <time>2024-01-23T08:17:52Z</time>
      </trkpt>
      <trkpt lat="48.59641" lon="1.96182">
        <ele>142.3</ele>
        <time>2024-01-23T08:18:00Z</time>
      </trkpt>
      <trkpt lat="48.59636" lon="1.96195">
        <ele>144</ele>
        <time>2024-01-23T08:18:07Z</time>
      </trkpt>
      <trkpt lat="48.59631" lon="1.96207">
        <ele>145.4</ele>
        <time>2024-01-23T08:18:15Z</time>
      </trkpt>
      <trkpt lat="48.59626" lon="1.96218">
        <ele>146.9</ele>
        <time>2024-01-23T08:18:23Z</time>
      </trkpt>
      <trkpt lat="48.59621" lon="1.96231">
        <ele>148.6</ele>
        <time>2024-01-23T08:18:31Z</time>
      </trkpt>
      <trkpt lat="48.59615" lon="1.96243">
        <ele>150.2</ele>
        <time>2024-01-23T08:18:39Z</time>
      </trkpt>
      <trkpt lat="48.59609" lon="1.96254">
        <ele>151.4</ele>
        <time>2024-01-23T08:18:47Z</time>
      </trkpt>
      <trkpt lat="48.59603" lon="1.96266">
        <ele>152.4</ele>
        <time>2024-01-23T08:18:56Z</time>
      </trkpt>
      <trkpt lat="48.59598" lon="1.96277">
        <ele>153.4</ele>
        <time>2024-01-23T08:19:03Z</time>
      </trkpt>
      <trkpt lat="48.59591" lon="1.96287">
        <ele>153.8</ele>
        <time>2024-01-23T08:19:10Z</time>
      </trkpt>
      <trkpt lat="48.59585" lon="1.96298">
        <ele>154.4</ele>
        <time>2024-01-23T08:19:17Z</time>
      </trkpt>
      <trkpt lat="48.59579" lon="1.9631">
        <ele>154.7</ele>
        <time>2024-01-23T08:19:24Z</time>
      </trkpt>
      <trkpt lat="48.59574" lon="1.96321">
        <ele>154.7</ele>
        <time>2024-01-23T08:19:30Z</time>
      </trkpt>
      <trkpt lat="48.59568" lon="1.96333">
        <ele>154.8</ele>
        <time>2024-01-23T08:19:36Z</time>
      </trkpt>
      <trkpt lat="48.59563" lon="1.96346">
        <ele>154.9</ele>
        <time>2024-01-23T08:19:42Z</time>
      </trkpt>
      <trkpt lat="48.59558" lon="1.96359">
        <ele>155.1</ele>
        <time>2024-01-23T08:19:49Z</time>
      </trkpt>
      <trkpt lat="48.59552" lon="1.9637">
        <ele>154.5</ele>
        <time>2024-01-23T08:19:55Z</time>
      </trkpt>
      <trkpt lat="48.59547" lon="1.96383">
        <ele>153.7</ele>
        <time>2024-01-23T08:20:02Z</time>
      </trkpt>
      <trkpt lat="48.59541" lon="1.96395">
        <ele>153</ele>
        <time>2024-01-23T08:20:09Z</time>
      </trkpt>
      <trkpt lat="48.59536" lon="1.96407">
        <ele>152.1</ele>
        <time>2024-01-23T08:20:16Z</time>
      </trkpt>
      <trkpt lat="48.59529" lon="1.96418">
        <ele>151.2</ele>
        <time>2024-01-23T08:20:23Z</time>
      </trkpt>
      <trkpt lat="48.59523" lon="1.96429">
        <ele>150.6</ele>
        <time>2024-01-23T08:20:30Z</time>
      </trkpt>
      <trkpt lat="48.59519" lon="1.96441">
        <ele>150.4</ele>
        <time>2024-01-23T08:20:36Z</time>
      </trkpt>
      <trkpt lat="48.59514" lon="1.96453">
        <ele>149.7</ele>
        <time>2024-01-23T08:20:42Z</time>
      </trkpt>
      <trkpt lat="48.59509" lon="1.96465">
        <ele>149.2</ele>
        <time>2024-01-23T08:20:48Z</time>
      </trkpt>
      <trkpt lat="48.59503" lon="1.96478">
        <ele>148.5</ele>
        <time>2024-01-23T08:20:55Z</time>
      </trkpt>
      <trkpt lat="48.59496" lon="1.96489">
        <ele>147.3</ele>
        <time>2024-01-23T08:21:02Z</time>
      </trkpt>
      <trkpt lat="48.5949" lon="1.965">
        <ele>146.2</ele>
        <time>2024-01-23T08:21:09Z</time>
      </trkpt>
      <trkpt lat="48.59484" lon="1.96512">
        <ele>144.9</ele>
        <time>2024-01-23T08:21:17Z</time>
      </trkpt>
      <trkpt lat="48.59479" lon="1.96525">
        <ele>144</ele>
        <time>2024-01-23T08:21:25Z</time>
      </trkpt>
      <trkpt lat="48.59473" lon="1.96537">
        <ele>143.2</ele>
        <time>2024-01-23T08:21:32Z</time>
      </trkpt>
      <trkpt lat="48.59468" lon="1.9655">
        <ele>142.6</ele>
        <time>2024-01-23T08:21:39Z</time>
      </trkpt>
      <trkpt lat="48.59462" lon="1.96562">
        <ele>142.5</ele>
        <time>2024-01-23T08:21:46Z</time>
      </trkpt>
      <trkpt lat="48.59457" lon="1.96573">
        <ele>142.5</ele>
        <time>2024-01-23T08:21:52Z</time>
      </trkpt>
      <trkpt lat="48.59451" lon="1.96586">
        <ele>142.6</ele>
        <time>2024-01-23T08:21:59Z</time>
      </trkpt>
      <trkpt lat="48.59446" lon="1.96598">
        <ele>142.6</ele>
        <time>2024-01-23T08:22:06Z</time>
      </trkpt>
      <trkpt lat="48.59441" lon="1.96611">
        <ele>142.7</ele>
        <time>2024-01-23T08:22:13Z</time>
      </trkpt>
      <trkpt lat="48.59436" lon="1.96623">
        <ele>142.5</ele>
        <time>2024-01-23T08:22:20Z</time>
      </trkpt>
      <trkpt lat="48.5943" lon="1.96637">
        <ele>142.4</ele>
        <time>2024-01-23T08:22:27Z</time>
      </trkpt>
      <trkpt lat="48.59424" lon="1.96647">
        <ele>142.5</ele>
        <time>2024-01-23T08:22:33Z</time>
      </trkpt>
      <trkpt lat="48.59418" lon="1.96658">
        <ele>142.7</ele>
        <time>2024-01-23T08:22:39Z</time>
      </trkpt>
      <trkpt lat="48.59413" lon="1.9667">
        <ele>142.8</ele>
        <time>2024-01-23T08:22:46Z</time>
      </trkpt>
      <trkpt lat="48.59413" lon="1.96686">
        <ele>143.4</ele>
        <time>2024-01-23T08:22:54Z</time>
      </trkpt>
      <trkpt lat="48.59418" lon="1.96697">
        <ele>144.1</ele>
        <time>2024-01-23T08:23:00Z</time>
      </trkpt>
      <trkpt lat="48.59421" lon="1.9671">
        <ele>144.7</ele>
        <time>2024-01-23T08:23:07Z</time>
      </trkpt>
      <trkpt lat="48.5942" lon="1.96725">
        <ele>145.3</ele>
        <time>2024-01-23T08:23:15Z</time>
      </trkpt>
      <trkpt lat="48.59419" lon="1.9674">
        <ele>146.4</ele>
        <time>2024-01-23T08:23:23Z</time>
      </trkpt>
      <trkpt lat="48.59421" lon="1.96755">
        <ele>147.5</ele>
        <time>2024-01-23T08:23:31Z</time>
      </trkpt>
      <trkpt lat="48.59426" lon="1.96767">
        <ele>148.3</ele>
        <time>2024-01-23T08:23:39Z</time>
      </trkpt>
      <trkpt lat="48.59432" lon="1.96777">
        <ele>149</ele>
        <time>2024-01-23T08:23:46Z</time>
      </trkpt>
      <trkpt lat="48.59437" lon="1.96791">
        <ele>150.1</ele>
        <time>2024-01-23T08:23:54Z</time>
      </trkpt>
      <trkpt lat="48.5944" lon="1.96804">
        <ele>151</ele>
        <time>2024-01-23T08:24:01Z</time>
      </trkpt>
      <trkpt lat="48.59443" lon="1.96818">
        <ele>152</ele>
        <time>2024-01-23T08:24:09Z</time>
      </trkpt>
      <trkpt lat="48.59445" lon="1.96832">
        <ele>152.8</ele>
        <time>2024-01-23T08:24:16Z</time>
      </trkpt>
      <trkpt lat="48.59445" lon="1.96846">
        <ele>152.9</ele>
        <time>2024-01-23T08:24:24Z</time>
      </trkpt>
      <trkpt lat="48.59438" lon="1.96854">
        <ele>153.6</ele>
        <time>2024-01-23T08:24:32Z</time>
      </trkpt>
      <trkpt lat="48.59428" lon="1.96856">
        <ele>154.6</ele>
        <time>2024-01-23T08:24:40Z</time>
      </trkpt>
      <trkpt lat="48.59419" lon="1.96862">
        <ele>155.7</ele>
        <time>2024-01-23T08:24:48Z</time>
      </trkpt>
      <trkpt lat="48.59413" lon="1.96873">
        <ele>155.8</ele>
        <time>2024-01-23T08:24:56Z</time>
      </trkpt>
      <trkpt lat="48.59407" lon="1.96884">
        <ele>155.6</ele>
        <time>2024-01-23T08:25:04Z</time>
      </trkpt>
      <trkpt lat="48.59405" lon="1.96898">
        <ele>155.6</ele>
        <time>2024-01-23T08:25:11Z</time>
      </trkpt>
      <trkpt lat="48.59407" lon="1.96913">
        <ele>155.6</ele>
        <time>2024-01-23T08:25:18Z</time>
      </trkpt>
      <trkpt lat="48.59409" lon="1.96927">
        <ele>156</ele>
        <time>2024-01-23T08:25:25Z</time>
      </trkpt>
      <trkpt lat="48.59411" lon="1.9694">
        <ele>156.5</ele>
        <time>2024-01-23T08:25:33Z</time>
      </trkpt>
      <trkpt lat="48.59415" lon="1.96954">
        <ele>156.9</ele>
        <time>2024-01-23T08:28:58Z</time>
      </trkpt>
      <trkpt lat="48.59422" lon="1.96965">
        <ele>156.6</ele>
        <time>2024-01-23T08:29:04Z</time>
      </trkpt>
      <trkpt lat="48.59425" lon="1.96979">
        <ele>156.4</ele>
        <time>2024-01-23T08:29:11Z</time>
      </trkpt>
      <trkpt lat="48.59424" lon="1.96993">
        <ele>156.5</ele>
        <time>2024-01-23T08:29:17Z</time>
      </trkpt>
      <trkpt lat="48.59421" lon="1.97006">
        <ele>156.7</ele>
        <time>2024-01-23T08:29:23Z</time>
      </trkpt>
      <trkpt lat="48.5942" lon="1.97021">
        <ele>156.8</ele>
        <time>2024-01-23T08:29:30Z</time>
      </trkpt>
      <trkpt lat="48.59423" lon="1.97036">
        <ele>157.1</ele>
        <time>2024-01-23T08:29:37Z</time>
      </trkpt>
      <trkpt lat="48.59426" lon="1.97049">
        <ele>157.4</ele>
        <time>2024-01-23T08:29:43Z</time>
      </trkpt>
      <trkpt lat="48.59428" lon="1.97062">
        <ele>157.7</ele>
        <time>2024-01-23T08:29:49Z</time>
      </trkpt>
      <trkpt lat="48.59432" lon="1.97077">
        <ele>157.9</ele>
        <time>2024-01-23T08:29:56Z</time>
      </trkpt>
      <trkpt lat="48.59435" lon="1.97091">
        <ele>158</ele>
        <time>2024-01-23T08:30:03Z</time>
      </trkpt>
      <trkpt lat="48.59435" lon="1.97105">
        <ele>158</ele>
        <time>2024-01-23T08:30:09Z</time>
      </trkpt>
      <trkpt lat="48.59435" lon="1.97119">
        <ele>158.2</ele>
        <time>2024-01-23T08:30:15Z</time>
      </trkpt>
      <trkpt lat="48.59434" lon="1.97133">
        <ele>158.5</ele>
        <time>2024-01-23T08:30:21Z</time>
      </trkpt>
      <trkpt lat="48.59435" lon="1.97147">
        <ele>158.4</ele>
        <time>2024-01-23T08:30:27Z</time>
      </trkpt>
      <trkpt lat="48.5944" lon="1.9716">
        <ele>158.1</ele>
        <time>2024-01-23T08:30:33Z</time>
      </trkpt>
      <trkpt lat="48.59443" lon="1.97174">
        <ele>157.9</ele>
        <time>2024-01-23T08:30:39Z</time>
      </trkpt>
      <trkpt lat="48.59444" lon="1.97187">
        <ele>158</ele>
        <time>2024-01-23T08:30:45Z</time>
      </trkpt>
      <trkpt lat="48.59438" lon="1.97198">
        <ele>157.3</ele>
        <time>2024-01-23T08:30:51Z</time>
      </trkpt>
      <trkpt lat="48.59431" lon="1.9721">
        <ele>156.2</ele>
        <time>2024-01-23T08:30:58Z</time>
      </trkpt>
      <trkpt lat="48.59428" lon="1.97224">
        <ele>155.2</ele>
        <time>2024-01-23T08:31:05Z</time>
      </trkpt>
      <trkpt lat="48.59426" lon="1.97238">
        <ele>153.9</ele>
        <time>2024-01-23T08:31:11Z</time>
      </trkpt>
      <trkpt lat="48.59432" lon="1.9725">
        <ele>153.1</ele>
        <time>2024-01-23T08:31:20Z</time>
      </trkpt>
      <trkpt lat="48.59438" lon="1.9726">
        <ele>152.1</ele>
        <time>2024-01-23T08:31:28Z</time>
      </trkpt>
      <trkpt lat="48.59446" lon="1.9727">
        <ele>151.1</ele>
        <time>2024-01-23T08:31:35Z</time>
      </trkpt>
      <trkpt lat="48.59452" lon="1.9728">
        <ele>149.6</ele>
        <time>2024-01-23T08:31:42Z</time>
      </trkpt>
      <trkpt lat="48.59459" lon="1.97291">
        <ele>148.2</ele>
        <time>2024-01-23T08:31:51Z</time>
      </trkpt>
      <trkpt lat="48.59466" lon="1.97303">
        <ele>146.8</ele>
        <time>2024-01-23T08:31:58Z</time>
      </trkpt>
      <trkpt lat="48.59468" lon="1.97318">
        <ele>144.9</ele>
        <time>2024-01-23T08:32:06Z</time>
      </trkpt>
      <trkpt lat="48.5947" lon="1.97333">
        <ele>143</ele>
        <time>2024-01-23T08:32:13Z</time>
      </trkpt>
      <trkpt lat="48.59472" lon="1.97347">
        <ele>141.5</ele>
        <time>2024-01-23T08:32:19Z</time>
      </trkpt>
      <trkpt lat="48.59474" lon="1.97361">
        <ele>140</ele>
        <time>2024-01-23T08:32:26Z</time>
      </trkpt>
      <trkpt lat="48.59474" lon="1.97375">
        <ele>139</ele>
        <time>2024-01-23T08:32:33Z</time>
      </trkpt>
      <trkpt lat="48.59478" lon="1.97388">
        <ele>138.2</ele>
        <time>2024-01-23T08:32:41Z</time>
      </trkpt>
      <trkpt lat="48.59481" lon="1.97402">
        <ele>138.2</ele>
        <time>2024-01-23T08:32:49Z</time>
      </trkpt>
      <trkpt lat="48.59488" lon="1.97412">
        <ele>138.1</ele>
        <time>2024-01-23T08:32:58Z</time>
      </trkpt>
      <trkpt lat="48.59492" lon="1.974">
        <ele>138.4</ele>
        <time>2024-01-23T08:33:09Z</time>
      </trkpt>
      <trkpt lat="48.59499" lon="1.9739">
        <ele>138.9</ele>
        <time>2024-01-23T08:33:16Z</time>
      </trkpt>
      <trkpt lat="48.59507" lon="1.97384">
        <ele>138.4</ele>
        <time>2024-01-23T08:33:24Z</time>
      </trkpt>
      <trkpt lat="48.59515" lon="1.97374">
        <ele>138</ele>
        <time>2024-01-23T08:33:31Z</time>
      </trkpt>
      <trkpt lat="48.59522" lon="1.97366">
        <ele>137.4</ele>
        <time>2024-01-23T08:33:38Z</time>
      </trkpt>
      <trkpt lat="48.5953" lon="1.97357">
        <ele>137.3</ele>
        <time>2024-01-23T08:33:44Z</time>
      </trkpt>
      <trkpt lat="48.59537" lon="1.97349">
        <ele>137.5</ele>
        <time>2024-01-23T08:33:51Z</time>
      </trkpt>
      <trkpt lat="48.59547" lon="1.97343">
        <ele>137.2</ele>
        <time>2024-01-23T08:33:59Z</time>
      </trkpt>
      <trkpt lat="48.59555" lon="1.97337">
        <ele>136.8</ele>
        <time>2024-01-23T08:34:08Z</time>
      </trkpt>
      <trkpt lat="48.59564" lon="1.97332">
        <ele>136.8</ele>
        <time>2024-01-23T08:34:15Z</time>
      </trkpt>
      <trkpt lat="48.59573" lon="1.97331">
        <ele>136.5</ele>
        <time>2024-01-23T08:34:22Z</time>
      </trkpt>
      <trkpt lat="48.59582" lon="1.97328">
        <ele>136.2</ele>
        <time>2024-01-23T08:34:27Z</time>
      </trkpt>
      <trkpt lat="48.59592" lon="1.97322">
        <ele>136</ele>
        <time>2024-01-23T08:34:34Z</time>
      </trkpt>
      <trkpt lat="48.596" lon="1.97318">
        <ele>135.6</ele>
        <time>2024-01-23T08:34:39Z</time>
      </trkpt>
      <trkpt lat="48.5961" lon="1.97314">
        <ele>135.1</ele>
        <time>2024-01-23T08:34:46Z</time>
      </trkpt>
      <trkpt lat="48.59619" lon="1.97309">
        <ele>134.5</ele>
        <time>2024-01-23T08:34:53Z</time>
      </trkpt>
      <trkpt lat="48.59628" lon="1.97303">
        <ele>133.8</ele>
        <time>2024-01-23T08:34:58Z</time>
      </trkpt>
      <trkpt lat="48.59637" lon="1.97298">
        <ele>133.1</ele>
        <time>2024-01-23T08:35:04Z</time>
      </trkpt>
      <trkpt lat="48.59647" lon="1.97293">
        <ele>132.4</ele>
        <time>2024-01-23T08:35:10Z</time>
      </trkpt>
      <trkpt lat="48.59655" lon="1.97287">
        <ele>131.8</ele>
        <time>2024-01-23T08:35:16Z</time>
      </trkpt>
      <trkpt lat="48.59664" lon="1.97283">
        <ele>131.2</ele>
        <time>2024-01-23T08:35:22Z</time>
      </trkpt>
      <trkpt lat="48.59672" lon="1.97276">
        <ele>130.8</ele>
        <time>2024-01-23T08:35:28Z</time>
      </trkpt>
      <trkpt lat="48.5968" lon="1.97269">
        <ele>130.5</ele>
        <time>2024-01-23T08:35:35Z</time>
      </trkpt>
      <trkpt lat="48.59689" lon="1.97263">
        <ele>130.2</ele>
        <time>2024-01-23T08:35:41Z</time>
      </trkpt>
      <trkpt lat="48.59698" lon="1.97259">
        <ele>130.1</ele>
        <time>2024-01-23T08:35:48Z</time>
      </trkpt>
      <trkpt lat="48.59707" lon="1.97254">
        <ele>130.4</ele>
        <time>2024-01-23T08:35:55Z</time>
      </trkpt>
      <trkpt lat="48.59716" lon="1.97249">
        <ele>130.8</ele>
        <time>2024-01-23T08:36:03Z</time>
      </trkpt>
      <trkpt lat="48.59725" lon="1.97245">
        <ele>131.1</ele>
        <time>2024-01-23T08:36:10Z</time>
      </trkpt>
      <trkpt lat="48.59735" lon="1.97241">
        <ele>131.5</ele>
        <time>2024-01-23T08:36:18Z</time>
      </trkpt>
      <trkpt lat="48.59745" lon="1.97238">
        <ele>131.8</ele>
        <time>2024-01-23T08:36:25Z</time>
      </trkpt>
      <trkpt lat="48.59754" lon="1.97233">
        <ele>132</ele>
        <time>2024-01-23T08:36:32Z</time>
      </trkpt>
      <trkpt lat="48.59761" lon="1.97225">
        <ele>132</ele>
        <time>2024-01-23T08:36:37Z</time>
      </trkpt>
      <trkpt lat="48.59771" lon="1.9722">
        <ele>132.1</ele>
        <time>2024-01-23T08:36:44Z</time>
      </trkpt>
      <trkpt lat="48.59779" lon="1.97216">
        <ele>132.2</ele>
        <time>2024-01-23T08:36:53Z</time>
      </trkpt>
      <trkpt lat="48.59789" lon="1.97213">
        <ele>132.3</ele>
        <time>2024-01-23T08:37:01Z</time>
      </trkpt>
      <trkpt lat="48.59798" lon="1.97211">
        <ele>132.4</ele>
        <time>2024-01-23T08:37:09Z</time>
      </trkpt>
      <trkpt lat="48.59806" lon="1.97203">
        <ele>132.7</ele>
        <time>2024-01-23T08:37:19Z</time>
      </trkpt>
      <trkpt lat="48.59816" lon="1.97198">
        <ele>132.9</ele>
        <time>2024-01-23T08:37:26Z</time>
      </trkpt>
      <trkpt lat="48.59824" lon="1.97191">
        <ele>133.1</ele>
        <time>2024-01-23T08:37:33Z</time>
      </trkpt>
      <trkpt lat="48.59834" lon="1.97194">
        <ele>133</ele>
        <time>2024-01-23T08:37:43Z</time>
      </trkpt>
      <trkpt lat="48.59845" lon="1.97192">
        <ele>133.1</ele>
        <time>2024-01-23T08:37:49Z</time>
      </trkpt>
      <trkpt lat="48.59853" lon="1.97184">
        <ele>133.4</ele>
        <time>2024-01-23T08:37:55Z</time>
      </trkpt>
      <trkpt lat="48.59862" lon="1.97178">
        <ele>133.6</ele>
        <time>2024-01-23T08:38:02Z</time>
      </trkpt>
      <trkpt lat="48.59873" lon="1.97174">
        <ele>134.2</ele>
        <time>2024-01-23T08:38:09Z</time>
      </trkpt>
      <trkpt lat="48.59883" lon="1.9717">
        <ele>134.7</ele>
        <time>2024-01-23T08:38:16Z</time>
      </trkpt>
      <trkpt lat="48.59891" lon="1.97162">
        <ele>135.2</ele>
        <time>2024-01-23T08:38:30Z</time>
      </trkpt>
      <trkpt lat="48.599" lon="1.97155">
        <ele>135.8</ele>
        <time>2024-01-23T08:38:42Z</time>
      </trkpt>
      <trkpt lat="48.5991" lon="1.97152">
        <ele>136.3</ele>
        <time>2024-01-23T08:38:48Z</time>
      </trkpt>
      <trkpt lat="48.59919" lon="1.97151">
        <ele>136.6</ele>
        <time>2024-01-23T08:38:54Z</time>
      </trkpt>
      <trkpt lat="48.59929" lon="1.97148">
        <ele>137</ele>
        <time>2024-01-23T08:39:00Z</time>
      </trkpt>
      <trkpt lat="48.59938" lon="1.97145">
        <ele>137.4</ele>
        <time>2024-01-23T08:39:05Z</time>
      </trkpt>
      <trkpt lat="48.59947" lon="1.9714">
        <ele>137.9</ele>
        <time>2024-01-23T08:39:10Z</time>
      </trkpt>
      <trkpt lat="48.59956" lon="1.97138">
        <ele>138</ele>
        <time>2024-01-23T08:39:16Z</time>
      </trkpt>
      <trkpt lat="48.59966" lon="1.97138">
        <ele>138.1</ele>
        <time>2024-01-23T08:39:22Z</time>
      </trkpt>
      <trkpt lat="48.59975" lon="1.97136">
        <ele>138.3</ele>
        <time>2024-01-23T08:39:30Z</time>
      </trkpt>
      <trkpt lat="48.59985" lon="1.97135">
        <ele>138.7</ele>
        <time>2024-01-23T08:39:38Z</time>
      </trkpt>
      <trkpt lat="48.59994" lon="1.97135">
        <ele>139</ele>
        <time>2024-01-23T08:39:48Z</time>
      </trkpt>
      <trkpt lat="48.60003" lon="1.97133">
        <ele>139.3</ele>
        <time>2024-01-23T08:39:57Z</time>
      </trkpt>
      <trkpt lat="48.60013" lon="1.97131">
        <ele>139.5</ele>
        <time>2024-01-23T08:40:05Z</time>
      </trkpt>
      <trkpt lat="48.60022" lon="1.97125">
        <ele>139.5</ele>
        <time>2024-01-23T08:40:12Z</time>
      </trkpt>
      <trkpt lat="48.60031" lon="1.9712">
        <ele>139.4</ele>
        <time>2024-01-23T08:40:18Z</time>
      </trkpt>
      <trkpt lat="48.60039" lon="1.97113">
        <ele>139.5</ele>
        <time>2024-01-23T08:40:24Z</time>
      </trkpt>
      <trkpt lat="48.60048" lon="1.97108">
        <ele>139.6</ele>
        <time>2024-01-23T08:40:31Z</time>
      </trkpt>
      <trkpt lat="48.60057" lon="1.97104">
        <ele>139.8</ele>
        <time>2024-01-23T08:40:38Z</time>
      </trkpt>
      <trkpt lat="48.60066" lon="1.97097">
        <ele>139.9</ele>
        <time>2024-01-23T08:40:44Z</time>
      </trkpt>
      <trkpt lat="48.60074" lon="1.97089">
        <ele>139.4</ele>
        <time>2024-01-23T08:40:50Z</time>
      </trkpt>
      <trkpt lat="48.60082" lon="1.97081">
        <ele>138.9</ele>
        <time>2024-01-23T08:40:55Z</time>
      </trkpt>
      <trkpt lat="48.60091" lon="1.97075">
        <ele>137.8</ele>
        <time>2024-01-23T08:41:01Z</time>
      </trkpt>
      <trkpt lat="48.60101" lon="1.97071">
        <ele>136.9</ele>
        <time>2024-01-23T08:41:08Z</time>
      </trkpt>
      <trkpt lat="48.60111" lon="1.97071">
        <ele>136.1</ele>
        <time>2024-01-23T08:41:15Z</time>
      </trkpt>
      <trkpt lat="48.60121" lon="1.97071">
        <ele>135.4</ele>
        <time>2024-01-23T08:41:22Z</time>
      </trkpt>
      <trkpt lat="48.60131" lon="1.97071">
        <ele>134.7</ele>
        <time>2024-01-23T08:41:29Z</time>
      </trkpt>
      <trkpt lat="48.6014" lon="1.97074">
        <ele>134.2</ele>
        <time>2024-01-23T08:41:36Z</time>
      </trkpt>
      <trkpt lat="48.60149" lon="1.97075">
        <ele>133.3</ele>
        <time>2024-01-23T08:41:45Z</time>
      </trkpt>
      <trkpt lat="48.60159" lon="1.97075">
        <ele>132.2</ele>
        <time>2024-01-23T08:41:54Z</time>
      </trkpt>
      <trkpt lat="48.60168" lon="1.97075">
        <ele>131.3</ele>
        <time>2024-01-23T08:42:03Z</time>
      </trkpt>
      <trkpt lat="48.60177" lon="1.97077">
        <ele>130.7</ele>
        <time>2024-01-23T08:42:12Z</time>
      </trkpt>
      <trkpt lat="48.60187" lon="1.97076">
        <ele>130</ele>
        <time>2024-01-23T08:42:22Z</time>
      </trkpt>
      <trkpt lat="48.60196" lon="1.97079">
        <ele>129.5</ele>
        <time>2024-01-23T08:42:32Z</time>
      </trkpt>
      <trkpt lat="48.60206" lon="1.97084">
        <ele>128.8</ele>
        <time>2024-01-23T08:42:43Z</time>
      </trkpt>
      <trkpt lat="48.60214" lon="1.97091">
        <ele>128.1</ele>
        <time>2024-01-23T08:42:55Z</time>
      </trkpt>
      <trkpt lat="48.60223" lon="1.97094">
        <ele>127.3</ele>
        <time>2024-01-23T08:43:03Z</time>
      </trkpt>
      <trkpt lat="48.60232" lon="1.97096">
        <ele>126.4</ele>
        <time>2024-01-23T08:43:27Z</time>
      </trkpt>
      <trkpt lat="48.60242" lon="1.97097">
        <ele>125.4</ele>
        <time>2024-01-23T08:44:26Z</time>
      </trkpt>
      <trkpt lat="48.6025" lon="1.97105">
        <ele>124.8</ele>
        <time>2024-01-23T08:44:34Z</time>
      </trkpt>
      <trkpt lat="48.6026" lon="1.97112">
        <ele>124.3</ele>
        <time>2024-01-23T08:44:39Z</time>
      </trkpt>
      <trkpt lat="48.60267" lon="1.97122">
        <ele>123.8</ele>
        <time>2024-01-23T08:44:45Z</time>
      </trkpt>
      <trkpt lat="48.60273" lon="1.97135">
        <ele>123.3</ele>
        <time>2024-01-23T08:44:53Z</time>
      </trkpt>
      <trkpt lat="48.60278" lon="1.97146">
        <ele>123</ele>
        <time>2024-01-23T08:44:59Z</time>
      </trkpt>
      <trkpt lat="48.60278" lon="1.97161">
        <ele>123</ele>
        <time>2024-01-23T08:45:06Z</time>
      </trkpt>
      <trkpt lat="48.60284" lon="1.97175">
        <ele>122.6</ele>
        <time>2024-01-23T08:45:14Z</time>
      </trkpt>
      <trkpt lat="48.60292" lon="1.97182">
        <ele>122</ele>
        <time>2024-01-23T08:45:19Z</time>
      </trkpt>
      <trkpt lat="48.603" lon="1.97192">
        <ele>121.4</ele>
        <time>2024-01-23T08:45:26Z</time>
      </trkpt>
      <trkpt lat="48.60309" lon="1.97198">
        <ele>120.8</ele>
        <time>2024-01-23T08:45:32Z</time>
      </trkpt>
      <trkpt lat="48.60315" lon="1.97208">
        <ele>120.3</ele>
        <time>2024-01-23T08:45:39Z</time>
      </trkpt>
      <trkpt lat="48.60318" lon="1.97222">
        <ele>120.1</ele>
        <time>2024-01-23T08:45:47Z</time>
      </trkpt>
      <trkpt lat="48.60324" lon="1.97233">
        <ele>119.7</ele>
        <time>2024-01-23T08:45:54Z</time>
      </trkpt>
      <trkpt lat="48.60328" lon="1.97247">
        <ele>119.4</ele>
        <time>2024-01-23T08:46:02Z</time>
      </trkpt>
      <trkpt lat="48.60331" lon="1.97261">
        <ele>119.1</ele>
        <time>2024-01-23T08:46:08Z</time>
      </trkpt>
      <trkpt lat="48.60339" lon="1.97271">
        <ele>118.6</ele>
        <time>2024-01-23T08:46:15Z</time>
      </trkpt>
      <trkpt lat="48.60347" lon="1.9728">
        <ele>118</ele>
        <time>2024-01-23T08:46:22Z</time>
      </trkpt>
      <trkpt lat="48.60354" lon="1.9729">
        <ele>117.5</ele>
        <time>2024-01-23T08:46:30Z</time>
      </trkpt>
      <trkpt lat="48.60361" lon="1.973">
        <ele>117</ele>
        <time>2024-01-23T08:46:40Z</time>
      </trkpt>
      <trkpt lat="48.6037" lon="1.973">
        <ele>116.5</ele>
        <time>2024-01-23T08:46:46Z</time>
      </trkpt>
      <trkpt lat="48.60378" lon="1.97308">
        <ele>115.8</ele>
        <time>2024-01-23T08:47:06Z</time>
      </trkpt>
      <trkpt lat="48.60384" lon="1.97319">
        <ele>115.4</ele>
        <time>2024-01-23T08:47:13Z</time>
      </trkpt>
      <trkpt lat="48.60392" lon="1.97327">
        <ele>114.9</ele>
        <time>2024-01-23T08:47:20Z</time>
      </trkpt>
      <trkpt lat="48.604" lon="1.97336">
        <ele>114.6</ele>
        <time>2024-01-23T08:47:27Z</time>
      </trkpt>
      <trkpt lat="48.60408" lon="1.97346">
        <ele>114.3</ele>
        <time>2024-01-23T08:47:34Z</time>
      </trkpt>
      <trkpt lat="48.60416" lon="1.9735">
        <ele>114</ele>
        <time>2024-01-23T08:47:40Z</time>
      </trkpt>
      <trkpt lat="48.60425" lon="1.97357">
        <ele>114</ele>
        <time>2024-01-23T08:47:46Z</time>
      </trkpt>
      <trkpt lat="48.60431" lon="1.97367">
        <ele>114</ele>
        <time>2024-01-23T08:47:52Z</time>
      </trkpt>
      <trkpt lat="48.60439" lon="1.97375">
        <ele>114</ele>
        <time>2024-01-23T08:47:57Z</time>
      </trkpt>
      <trkpt lat="48.60447" lon="1.97384">
        <ele>113.9</ele>
        <time>2024-01-23T08:48:03Z</time>
      </trkpt>
      <trkpt lat="48.60455" lon="1.97393">
        <ele>113.6</ele>
        <time>2024-01-23T08:48:09Z</time>
      </trkpt>
      <trkpt lat="48.60462" lon="1.97404">
        <ele>113.4</ele>
        <time>2024-01-23T08:48:15Z</time>
      </trkpt>
      <trkpt lat="48.60468" lon="1.97417">
        <ele>113.2</ele>
        <time>2024-01-23T08:48:21Z</time>
      </trkpt>
      <trkpt lat="48.60475" lon="1.97427">
        <ele>112.9</ele>
        <time>2024-01-23T08:48:26Z</time>
      </trkpt>
      <trkpt lat="48.60483" lon="1.97436">
        <ele>112.6</ele>
        <time>2024-01-23T08:48:31Z</time>
      </trkpt>
      <trkpt lat="48.60492" lon="1.9744">
        <ele>112.3</ele>
        <time>2024-01-23T08:48:40Z</time>
      </trkpt>
      <trkpt lat="48.60499" lon="1.9745">
        <ele>112</ele>
        <time>2024-01-23T08:48:50Z</time>
      </trkpt>
      <trkpt lat="48.60508" lon="1.97454">
        <ele>111.7</ele>
        <time>2024-01-23T08:48:56Z</time>
      </trkpt>
      <trkpt lat="48.60518" lon="1.97456">
        <ele>111.4</ele>
        <time>2024-01-23T08:49:03Z</time>
      </trkpt>
      <trkpt lat="48.60526" lon="1.97461">
        <ele>111.1</ele>
        <time>2024-01-23T08:49:10Z</time>
      </trkpt>
      <trkpt lat="48.60534" lon="1.97469">
        <ele>110.8</ele>
        <time>2024-01-23T08:49:20Z</time>
      </trkpt>
      <trkpt lat="48.6054" lon="1.97481">
        <ele>110.4</ele>
        <time>2024-01-23T08:49:28Z</time>
      </trkpt>
      <trkpt lat="48.60549" lon="1.9749">
        <ele>110.1</ele>
        <time>2024-01-23T08:49:35Z</time>
      </trkpt>
      <trkpt lat="48.60556" lon="1.97501">
        <ele>110</ele>
        <time>2024-01-23T08:49:42Z</time>
      </trkpt>
      <trkpt lat="48.60565" lon="1.97506">
        <ele>109.8</ele>
        <time>2024-01-23T08:49:48Z</time>
      </trkpt>
      <trkpt lat="48.60573" lon="1.97513">
        <ele>109.5</ele>
        <time>2024-01-23T08:49:56Z</time>
      </trkpt>
      <trkpt lat="48.60581" lon="1.97522">
        <ele>109.2</ele>
        <time>2024-01-23T08:50:03Z</time>
      </trkpt>
      <trkpt lat="48.60589" lon="1.9753">
        <ele>109</ele>
        <time>2024-01-23T08:50:10Z</time>
      </trkpt>
      <trkpt lat="48.60591" lon="1.97543">
        <ele>108.9</ele>
        <time>2024-01-23T08:50:49Z</time>
      </trkpt>
      <trkpt lat="48.60583" lon="1.97554">
        <ele>109</ele>
        <time>2024-01-23T08:50:56Z</time>
      </trkpt>
      <trkpt lat="48.60576" lon="1.97564">
        <ele>108.8</ele>
        <time>2024-01-23T08:51:03Z</time>
      </trkpt>
      <trkpt lat="48.60571" lon="1.97576">
        <ele>108.6</ele>
        <time>2024-01-23T08:51:11Z</time>
      </trkpt>
      <trkpt lat="48.60574" lon="1.9759">
        <ele>108.3</ele>
        <time>2024-01-23T08:51:20Z</time>
      </trkpt>
      <trkpt lat="48.60577" lon="1.97604">
        <ele>108.2</ele>
        <time>2024-01-23T08:51:28Z</time>
      </trkpt>
      <trkpt lat="48.60578" lon="1.97618">
        <ele>108</ele>
        <time>2024-01-23T08:51:35Z</time>
      </trkpt>
      <trkpt lat="48.60579" lon="1.97631">
        <ele>107.5</ele>
        <time>2024-01-23T08:51:44Z</time>
      </trkpt>
      <trkpt lat="48.60576" lon="1.97644">
        <ele>107.5</ele>
        <time>2024-01-23T08:51:51Z</time>
      </trkpt>
      <trkpt lat="48.60568" lon="1.97652">
        <ele>108.1</ele>
        <time>2024-01-23T08:51:59Z</time>
      </trkpt>
      <trkpt lat="48.60559" lon="1.97659">
        <ele>108.7</ele>
        <time>2024-01-23T08:52:07Z</time>
      </trkpt>
      <trkpt lat="48.6055" lon="1.9766">
        <ele>109.2</ele>
        <time>2024-01-23T08:52:15Z</time>
      </trkpt>
      <trkpt lat="48.60546" lon="1.97673">
        <ele>109.4</ele>
        <time>2024-01-23T08:52:27Z</time>
      </trkpt>
      <trkpt lat="48.60543" lon="1.97686">
        <ele>109.8</ele>
        <time>2024-01-23T08:52:35Z</time>
      </trkpt>
      <trkpt lat="48.60538" lon="1.97698">
        <ele>110.3</ele>
        <time>2024-01-23T08:52:42Z</time>
      </trkpt>
      <trkpt lat="48.60529" lon="1.97698">
        <ele>110.9</ele>
        <time>2024-01-23T08:52:53Z</time>
      </trkpt>
      <trkpt lat="48.60532" lon="1.97711">
        <ele>110.7</ele>
        <time>2024-01-23T08:54:16Z</time>
      </trkpt>
      <trkpt lat="48.60541" lon="1.97716">
        <ele>110</ele>
        <time>2024-01-23T08:55:04Z</time>
      </trkpt>
      <trkpt lat="48.6055" lon="1.97723">
        <ele>109.4</ele>
        <time>2024-01-23T08:55:10Z</time>
      </trkpt>
      <trkpt lat="48.60559" lon="1.97731">
        <ele>108.8</ele>
        <time>2024-01-23T08:55:16Z</time>
      </trkpt>
      <trkpt lat="48.60567" lon="1.9774">
        <ele>108.2</ele>
        <time>2024-01-23T08:55:22Z</time>
      </trkpt>
      <trkpt lat="48.60575" lon="1.97749">
        <ele>107.6</ele>
        <time>2024-01-23T08:55:28Z</time>
      </trkpt>
      <trkpt lat="48.60583" lon="1.97756">
        <ele>107.3</ele>
        <time>2024-01-23T08:55:34Z</time>
      </trkpt>
      <trkpt lat="48.6059" lon="1.97765">
        <ele>107.2</ele>
        <time>2024-01-23T08:55:40Z</time>
      </trkpt>
      <trkpt lat="48.60597" lon="1.97773">
        <ele>106.9</ele>
        <time>2024-01-23T08:55:47Z</time>
      </trkpt>
      <trkpt lat="48.60606" lon="1.97782">
        <ele>106.4</ele>
        <time>2024-01-23T08:55:55Z</time>
      </trkpt>
      <trkpt lat="48.60613" lon="1.97792">
        <ele>106</ele>
        <time>2024-01-23T08:56:05Z</time>
      </trkpt>
      <trkpt lat="48.6062" lon="1.978">
        <ele>105.9</ele>
        <time>2024-01-23T08:56:12Z</time>
      </trkpt>
      <trkpt lat="48.60628" lon="1.9781">
        <ele>106.1</ele>
        <time>2024-01-23T08:56:20Z</time>
      </trkpt>
      <trkpt lat="48.60636" lon="1.9782">
        <ele>106.1</ele>
        <time>2024-01-23T08:56:27Z</time>
      </trkpt>
      <trkpt lat="48.60644" lon="1.97827">
        <ele>105.8</ele>
        <time>2024-01-23T08:56:33Z</time>
      </trkpt>
      <trkpt lat="48.60652" lon="1.97836">
        <ele>105.6</ele>
        <time>2024-01-23T08:56:40Z</time>
      </trkpt>
      <trkpt lat="48.60661" lon="1.97844">
        <ele>105.5</ele>
        <time>2024-01-23T08:56:47Z</time>
      </trkpt>
      <trkpt lat="48.6067" lon="1.9785">
        <ele>105.5</ele>
        <time>2024-01-23T08:56:53Z</time>
      </trkpt>
      <trkpt lat="48.60679" lon="1.97854">
        <ele>105.4</ele>
        <time>2024-01-23T08:56:58Z</time>
      </trkpt>
      <trkpt lat="48.60686" lon="1.97863">
        <ele>105.3</ele>
        <time>2024-01-23T08:57:04Z</time>
      </trkpt>
      <trkpt lat="48.60695" lon="1.9787">
        <ele>105</ele>
        <time>2024-01-23T08:57:10Z</time>
      </trkpt>
      <trkpt lat="48.60703" lon="1.97877">
        <ele>104.9</ele>
        <time>2024-01-23T08:57:16Z</time>
      </trkpt>
      <trkpt lat="48.60712" lon="1.97871">
        <ele>104.6</ele>
        <time>2024-01-23T08:58:41Z</time>
      </trkpt>
      <trkpt lat="48.60718" lon="1.97861">
        <ele>104.2</ele>
        <time>2024-01-23T08:58:49Z</time>
      </trkpt>
      <trkpt lat="48.60725" lon="1.97851">
        <ele>104</ele>
        <time>2024-01-23T08:58:57Z</time>
      </trkpt>
      <trkpt lat="48.60733" lon="1.97846">
        <ele>104</ele>
        <time>2024-01-23T08:59:04Z</time>
      </trkpt>
      <trkpt lat="48.60741" lon="1.97837">
        <ele>104</ele>
        <time>2024-01-23T08:59:11Z</time>
      </trkpt>
      <trkpt lat="48.60749" lon="1.97829">
        <ele>104</ele>
        <time>2024-01-23T08:59:18Z</time>
      </trkpt>
      <trkpt lat="48.60758" lon="1.97823">
        <ele>103.7</ele>
        <time>2024-01-23T08:59:25Z</time>
      </trkpt>
      <trkpt lat="48.60767" lon="1.97815">
        <ele>103.4</ele>
        <time>2024-01-23T08:59:33Z</time>
      </trkpt>
      <trkpt lat="48.60774" lon="1.97807">
        <ele>103.1</ele>
        <time>2024-01-23T08:59:40Z</time>
      </trkpt>
      <trkpt lat="48.60781" lon="1.97797">
        <ele>103</ele>
        <time>2024-01-23T08:59:46Z</time>
      </trkpt>
      <trkpt lat="48.60786" lon="1.97785">
        <ele>103</ele>
        <time>2024-01-23T08:59:53Z</time>
      </trkpt>
      <trkpt lat="48.60791" lon="1.97773">
        <ele>103</ele>
        <time>2024-01-23T09:00:00Z</time>
      </trkpt>
      <trkpt lat="48.60793" lon="1.97759">
        <ele>103</ele>
        <time>2024-01-23T09:00:06Z</time>
      </trkpt>
      <trkpt lat="48.60799" lon="1.97747">
        <ele>103</ele>
        <time>2024-01-23T09:00:13Z</time>
      </trkpt>
      <trkpt lat="48.60806" lon="1.97737">
        <ele>103</ele>
        <time>2024-01-23T09:00:20Z</time>
      </trkpt>
      <trkpt lat="48.60814" lon="1.97728">
        <ele>103</ele>
        <time>2024-01-23T09:00:28Z</time>
      </trkpt>
      <trkpt lat="48.60823" lon="1.97721">
        <ele>103</ele>
        <time>2024-01-23T09:00:37Z</time>
      </trkpt>
      <trkpt lat="48.60832" lon="1.97718">
        <ele>103</ele>
        <time>2024-01-23T09:00:47Z</time>
      </trkpt>
      <trkpt lat="48.60835" lon="1.97705">
        <ele>103</ele>
        <time>2024-01-23T09:01:10Z</time>
      </trkpt>
      <trkpt lat="48.60836" lon="1.97691">
        <ele>103</ele>
        <time>2024-01-23T09:01:18Z</time>
      </trkpt>
      <trkpt lat="48.60837" lon="1.97676">
        <ele>103</ele>
        <time>2024-01-23T09:01:27Z</time>
      </trkpt>
      <trkpt lat="48.60836" lon="1.97661">
        <ele>103.2</ele>
        <time>2024-01-23T09:01:35Z</time>
      </trkpt>
      <trkpt lat="48.60834" lon="1.97647">
        <ele>103.7</ele>
        <time>2024-01-23T09:01:42Z</time>
      </trkpt>
      <trkpt lat="48.60831" lon="1.97633">
        <ele>104</ele>
        <time>2024-01-23T09:01:51Z</time>
      </trkpt>
      <trkpt lat="48.60829" lon="1.97617">
        <ele>104</ele>
        <time>2024-01-23T09:01:59Z</time>
      </trkpt>
      <trkpt lat="48.60827" lon="1.97602">
        <ele>104</ele>
        <time>2024-01-23T09:02:06Z</time>
      </trkpt>
      <trkpt lat="48.60823" lon="1.97587">
        <ele>104</ele>
        <time>2024-01-23T09:02:13Z</time>
      </trkpt>
      <trkpt lat="48.60819" lon="1.97573">
        <ele>104</ele>
        <time>2024-01-23T09:02:20Z</time>
      </trkpt>
      <trkpt lat="48.60814" lon="1.97561">
        <ele>104</ele>
        <time>2024-01-23T09:02:26Z</time>
      </trkpt>
      <trkpt lat="48.60808" lon="1.97549">
        <ele>104.2</ele>
        <time>2024-01-23T09:02:32Z</time>
      </trkpt>
      <trkpt lat="48.60804" lon="1.97535">
        <ele>104.8</ele>
        <time>2024-01-23T09:02:39Z</time>
      </trkpt>
      <trkpt lat="48.60798" lon="1.97522">
        <ele>105</ele>
        <time>2024-01-23T09:02:46Z</time>
      </trkpt>
      <trkpt lat="48.60794" lon="1.97509">
        <ele>105</ele>
        <time>2024-01-23T09:02:54Z</time>
      </trkpt>
      <trkpt lat="48.60791" lon="1.97494">
        <ele>105</ele>
        <time>2024-01-23T09:03:00Z</time>
      </trkpt>
      <trkpt lat="48.60786" lon="1.9748">
        <ele>105</ele>
        <time>2024-01-23T09:03:07Z</time>
      </trkpt>
      <trkpt lat="48.60784" lon="1.97465">
        <ele>105</ele>
        <time>2024-01-23T09:03:13Z</time>
      </trkpt>
      <trkpt lat="48.60786" lon="1.97452">
        <ele>105</ele>
        <time>2024-01-23T09:03:20Z</time>
      </trkpt>
      <trkpt lat="48.60791" lon="1.97439">
        <ele>104.9</ele>
        <time>2024-01-23T09:03:28Z</time>
      </trkpt>
      <trkpt lat="48.60798" lon="1.97429">
        <ele>104.6</ele>
        <time>2024-01-23T09:03:36Z</time>
      </trkpt>
      <trkpt lat="48.60806" lon="1.97422">
        <ele>104.2</ele>
        <time>2024-01-23T09:03:45Z</time>
      </trkpt>
      <trkpt lat="48.60814" lon="1.97414">
        <ele>104</ele>
        <time>2024-01-23T09:03:52Z</time>
      </trkpt>
      <trkpt lat="48.60821" lon="1.97406">
        <ele>104</ele>
        <time>2024-01-23T09:04:00Z</time>
      </trkpt>
      <trkpt lat="48.60828" lon="1.97396">
        <ele>104</ele>
        <time>2024-01-23T09:04:07Z</time>
      </trkpt>
      <trkpt lat="48.60836" lon="1.97387">
        <ele>103.9</ele>
        <time>2024-01-23T09:04:13Z</time>
      </trkpt>
      <trkpt lat="48.60844" lon="1.97379">
        <ele>103.6</ele>
        <time>2024-01-23T09:04:20Z</time>
      </trkpt>
      <trkpt lat="48.60851" lon="1.97371">
        <ele>103.4</ele>
        <time>2024-01-23T09:04:26Z</time>
      </trkpt>
      <trkpt lat="48.60858" lon="1.9736">
        <ele>103.1</ele>
        <time>2024-01-23T09:04:33Z</time>
      </trkpt>
      <trkpt lat="48.60865" lon="1.9735">
        <ele>103</ele>
        <time>2024-01-23T09:04:40Z</time>
      </trkpt>
      <trkpt lat="48.60871" lon="1.97339">
        <ele>103</ele>
        <time>2024-01-23T09:04:47Z</time>
      </trkpt>
      <trkpt lat="48.60877" lon="1.97329">
        <ele>103</ele>
        <time>2024-01-23T09:04:54Z</time>
      </trkpt>
      <trkpt lat="48.60885" lon="1.97318">
        <ele>103</ele>
        <time>2024-01-23T09:05:02Z</time>
      </trkpt>
      <trkpt lat="48.60891" lon="1.97306">
        <ele>103</ele>
        <time>2024-01-23T09:05:09Z</time>
      </trkpt>
      <trkpt lat="48.60897" lon="1.97296">
        <ele>103</ele>
        <time>2024-01-23T09:05:17Z</time>
      </trkpt>
      <trkpt lat="48.60904" lon="1.97285">
        <ele>103</ele>
        <time>2024-01-23T09:05:24Z</time>
      </trkpt>
      <trkpt lat="48.60913" lon="1.97278">
        <ele>103</ele>
        <time>2024-01-23T09:05:35Z</time>
      </trkpt>
      <trkpt lat="48.6092" lon="1.9727">
        <ele>103</ele>
        <time>2024-01-23T09:05:42Z</time>
      </trkpt>
      <trkpt lat="48.60929" lon="1.97262">
        <ele>103</ele>
        <time>2024-01-23T09:05:49Z</time>
      </trkpt>
      <trkpt lat="48.60937" lon="1.97255">
        <ele>103</ele>
        <time>2024-01-23T09:05:55Z</time>
      </trkpt>
      <trkpt lat="48.60945" lon="1.97249">
        <ele>103</ele>
        <time>2024-01-23T09:06:01Z</time>
      </trkpt>
      <trkpt lat="48.60954" lon="1.97243">
        <ele>103</ele>
        <time>2024-01-23T09:06:08Z</time>
      </trkpt>
      <trkpt lat="48.60963" lon="1.97236">
        <ele>103</ele>
        <time>2024-01-23T09:06:16Z</time>
      </trkpt>
      <trkpt lat="48.60972" lon="1.97229">
        <ele>103</ele>
        <time>2024-01-23T09:06:24Z</time>
      </trkpt>
      <trkpt lat="48.6098" lon="1.9722">
        <ele>103</ele>
        <time>2024-01-23T09:06:31Z</time>
      </trkpt>
      <trkpt lat="48.60987" lon="1.97211">
        <ele>103</ele>
        <time>2024-01-23T09:06:38Z</time>
      </trkpt>
      <trkpt lat="48.60994" lon="1.97202">
        <ele>103</ele>
        <time>2024-01-23T09:06:55Z</time>
      </trkpt>
      <trkpt lat="48.61002" lon="1.97194">
        <ele>102.9</ele>
        <time>2024-01-23T09:07:03Z</time>
      </trkpt>
      <trkpt lat="48.61011" lon="1.97189">
        <ele>102.6</ele>
        <time>2024-01-23T09:07:25Z</time>
      </trkpt>
      <trkpt lat="48.61018" lon="1.97178">
        <ele>102.4</ele>
        <time>2024-01-23T09:07:36Z</time>
      </trkpt>
      <trkpt lat="48.61025" lon="1.97171">
        <ele>102.1</ele>
        <time>2024-01-23T09:07:45Z</time>
      </trkpt>
      <trkpt lat="48.61034" lon="1.97166">
        <ele>102</ele>
        <time>2024-01-23T09:07:53Z</time>
      </trkpt>
      <trkpt lat="48.61044" lon="1.97161">
        <ele>102</ele>
        <time>2024-01-23T09:08:01Z</time>
      </trkpt>
      <trkpt lat="48.61053" lon="1.97154">
        <ele>102</ele>
        <time>2024-01-23T09:08:10Z</time>
      </trkpt>
      <trkpt lat="48.61063" lon="1.97149">
        <ele>102</ele>
        <time>2024-01-23T09:08:17Z</time>
      </trkpt>
      <trkpt lat="48.61072" lon="1.97144">
        <ele>102</ele>
        <time>2024-01-23T09:08:26Z</time>
      </trkpt>
      <trkpt lat="48.61081" lon="1.97142">
        <ele>102</ele>
        <time>2024-01-23T09:08:34Z</time>
      </trkpt>
      <trkpt lat="48.6109" lon="1.97138">
        <ele>102</ele>
        <time>2024-01-23T09:08:40Z</time>
      </trkpt>
      <trkpt lat="48.61099" lon="1.97135">
        <ele>102</ele>
        <time>2024-01-23T09:08:46Z</time>
      </trkpt>
      <trkpt lat="48.61109" lon="1.97131">
        <ele>102</ele>
        <time>2024-01-23T09:08:55Z</time>
      </trkpt>
      <trkpt lat="48.61119" lon="1.97131">
        <ele>102</ele>
        <time>2024-01-23T09:09:03Z</time>
      </trkpt>
      <trkpt lat="48.61128" lon="1.97132">
        <ele>102</ele>
        <time>2024-01-23T09:09:09Z</time>
      </trkpt>
      <trkpt lat="48.61137" lon="1.97135">
        <ele>102</ele>
        <time>2024-01-23T09:09:15Z</time>
      </trkpt>
      <trkpt lat="48.61146" lon="1.97137">
        <ele>102</ele>
        <time>2024-01-23T09:09:21Z</time>
      </trkpt>
      <trkpt lat="48.61156" lon="1.97138">
        <ele>102</ele>
        <time>2024-01-23T09:09:26Z</time>
      </trkpt>
      <trkpt lat="48.61166" lon="1.97142">
        <ele>101.9</ele>
        <time>2024-01-23T09:09:32Z</time>
      </trkpt>
      <trkpt lat="48.61175" lon="1.97142">
        <ele>101.6</ele>
        <time>2024-01-23T09:09:38Z</time>
      </trkpt>
      <trkpt lat="48.61185" lon="1.97144">
        <ele>101.3</ele>
        <time>2024-01-23T09:09:48Z</time>
      </trkpt>
      <trkpt lat="48.61195" lon="1.97144">
        <ele>101</ele>
        <time>2024-01-23T09:09:55Z</time>
      </trkpt>
      <trkpt lat="48.61206" lon="1.97142">
        <ele>101</ele>
        <time>2024-01-23T09:10:06Z</time>
      </trkpt>
      <trkpt lat="48.61215" lon="1.97143">
        <ele>100.9</ele>
        <time>2024-01-23T09:10:12Z</time>
      </trkpt>
      <trkpt lat="48.61224" lon="1.97141">
        <ele>100.9</ele>
        <time>2024-01-23T09:10:20Z</time>
      </trkpt>
      <trkpt lat="48.61234" lon="1.97136">
        <ele>100.6</ele>
        <time>2024-01-23T09:10:31Z</time>
      </trkpt>
      <trkpt lat="48.61243" lon="1.97134">
        <ele>100.4</ele>
        <time>2024-01-23T09:10:40Z</time>
      </trkpt>
      <trkpt lat="48.61252" lon="1.97126">
        <ele>100.4</ele>
        <time>2024-01-23T09:10:47Z</time>
      </trkpt>
      <trkpt lat="48.61261" lon="1.97124">
        <ele>100.3</ele>
        <time>2024-01-23T09:12:47Z</time>
      </trkpt>
      <trkpt lat="48.6127" lon="1.97125">
        <ele>100.1</ele>
        <time>2024-01-23T09:12:56Z</time>
      </trkpt>
      <trkpt lat="48.6128" lon="1.97125">
        <ele>100</ele>
        <time>2024-01-23T09:13:07Z</time>
      </trkpt>
      <trkpt lat="48.61289" lon="1.97127">
        <ele>100.2</ele>
        <time>2024-01-23T09:13:15Z</time>
      </trkpt>
      <trkpt lat="48.61298" lon="1.97129">
        <ele>100.3</ele>
        <time>2024-01-23T09:13:24Z</time>
      </trkpt>
      <trkpt lat="48.61308" lon="1.97131">
        <ele>100.3</ele>
        <time>2024-01-23T09:13:30Z</time>
      </trkpt>
      <trkpt lat="48.61318" lon="1.97134">
        <ele>100.2</ele>
        <time>2024-01-23T09:13:37Z</time>
      </trkpt>
      <trkpt lat="48.61327" lon="1.97136">
        <ele>100.1</ele>
        <time>2024-01-23T09:13:43Z</time>
      </trkpt>
      <trkpt lat="48.61337" lon="1.97139">
        <ele>100.1</ele>
        <time>2024-01-23T09:13:50Z</time>
      </trkpt>
      <trkpt lat="48.61346" lon="1.9714">
        <ele>100.4</ele>
        <time>2024-01-23T09:13:56Z</time>
      </trkpt>
      <trkpt lat="48.61355" lon="1.97143">
        <ele>100.7</ele>
        <time>2024-01-23T09:14:03Z</time>
      </trkpt>
      <trkpt lat="48.61365" lon="1.97143">
        <ele>100.9</ele>
        <time>2024-01-23T09:14:13Z</time>
      </trkpt>
      <trkpt lat="48.61374" lon="1.9714">
        <ele>101</ele>
        <time>2024-01-23T09:14:22Z</time>
      </trkpt>
      <trkpt lat="48.61383" lon="1.97132">
        <ele>101</ele>
        <time>2024-01-23T09:14:30Z</time>
      </trkpt>
      <trkpt lat="48.61391" lon="1.97125">
        <ele>101</ele>
        <time>2024-01-23T09:14:38Z</time>
      </trkpt>
      <trkpt lat="48.614" lon="1.97119">
        <ele>101</ele>
        <time>2024-01-23T09:14:44Z</time>
      </trkpt>
      <trkpt lat="48.61409" lon="1.97113">
        <ele>101</ele>
        <time>2024-01-23T09:14:50Z</time>
      </trkpt>
      <trkpt lat="48.61418" lon="1.97107">
        <ele>101</ele>
        <time>2024-01-23T09:14:58Z</time>
      </trkpt>
      <trkpt lat="48.61425" lon="1.97098">
        <ele>101.1</ele>
        <time>2024-01-23T09:15:05Z</time>
      </trkpt>
      <trkpt lat="48.61434" lon="1.97092">
        <ele>101.4</ele>
        <time>2024-01-23T09:15:11Z</time>
      </trkpt>
      <trkpt lat="48.61443" lon="1.97088">
        <ele>101.8</ele>
        <time>2024-01-23T09:15:18Z</time>
      </trkpt>
      <trkpt lat="48.6145" lon="1.97078">
        <ele>102</ele>
        <time>2024-01-23T09:15:26Z</time>
      </trkpt>
      <trkpt lat="48.61458" lon="1.97068">
        <ele>102</ele>
        <time>2024-01-23T09:15:32Z</time>
      </trkpt>
      <trkpt lat="48.61465" lon="1.97059">
        <ele>102</ele>
        <time>2024-01-23T09:15:38Z</time>
      </trkpt>
      <trkpt lat="48.61472" lon="1.97046">
        <ele>102</ele>
        <time>2024-01-23T09:15:44Z</time>
      </trkpt>
      <trkpt lat="48.61477" lon="1.97033">
        <ele>102</ele>
        <time>2024-01-23T09:15:49Z</time>
      </trkpt>
      <trkpt lat="48.6148" lon="1.97019">
        <ele>102</ele>
        <time>2024-01-23T09:15:56Z</time>
      </trkpt>
      <trkpt lat="48.6149" lon="1.97012">
        <ele>102</ele>
        <time>2024-01-23T09:16:01Z</time>
      </trkpt>
      <trkpt lat="48.61498" lon="1.97004">
        <ele>102</ele>
        <time>2024-01-23T09:16:07Z</time>
      </trkpt>
      <trkpt lat="48.61508" lon="1.96998">
        <ele>102</ele>
        <time>2024-01-23T09:16:13Z</time>
      </trkpt>
      <trkpt lat="48.61517" lon="1.96993">
        <ele>102.2</ele>
        <time>2024-01-23T09:16:20Z</time>
      </trkpt>
      <trkpt lat="48.61526" lon="1.96988">
        <ele>102.4</ele>
        <time>2024-01-23T09:16:27Z</time>
      </trkpt>
      <trkpt lat="48.61534" lon="1.96984">
        <ele>102.8</ele>
        <time>2024-01-23T09:16:32Z</time>
      </trkpt>
      <trkpt lat="48.61544" lon="1.96981">
        <ele>103.3</ele>
        <time>2024-01-23T09:16:38Z</time>
      </trkpt>
      <trkpt lat="48.61554" lon="1.96979">
        <ele>103.7</ele>
        <time>2024-01-23T09:16:45Z</time>
      </trkpt>
      <trkpt lat="48.61564" lon="1.96979">
        <ele>104.1</ele>
        <time>2024-01-23T09:16:53Z</time>
      </trkpt>
      <trkpt lat="48.61573" lon="1.96977">
        <ele>104.6</ele>
        <time>2024-01-23T09:17:02Z</time>
      </trkpt>
      <trkpt lat="48.61583" lon="1.96974">
        <ele>105</ele>
        <time>2024-01-23T09:17:09Z</time>
      </trkpt>
      <trkpt lat="48.61593" lon="1.96972">
        <ele>105.7</ele>
        <time>2024-01-23T09:17:17Z</time>
      </trkpt>
      <trkpt lat="48.61603" lon="1.96972">
        <ele>106.4</ele>
        <time>2024-01-23T09:17:23Z</time>
      </trkpt>
      <trkpt lat="48.61612" lon="1.96973">
        <ele>107</ele>
        <time>2024-01-23T09:17:29Z</time>
      </trkpt>
      <trkpt lat="48.61622" lon="1.96971">
        <ele>107.4</ele>
        <time>2024-01-23T09:17:40Z</time>
      </trkpt>
      <trkpt lat="48.61631" lon="1.9697">
        <ele>107.8</ele>
        <time>2024-01-23T09:17:47Z</time>
      </trkpt>
      <trkpt lat="48.61641" lon="1.96971">
        <ele>108.1</ele>
        <time>2024-01-23T09:17:53Z</time>
      </trkpt>
      <trkpt lat="48.61651" lon="1.96972">
        <ele>108.5</ele>
        <time>2024-01-23T09:17:59Z</time>
      </trkpt>
      <trkpt lat="48.61661" lon="1.96974">
        <ele>108.7</ele>
        <time>2024-01-23T09:18:05Z</time>
      </trkpt>
      <trkpt lat="48.61671" lon="1.96975">
        <ele>109.1</ele>
        <time>2024-01-23T09:18:11Z</time>
      </trkpt>
      <trkpt lat="48.61682" lon="1.96976">
        <ele>109.4</ele>
        <time>2024-01-23T09:18:18Z</time>
      </trkpt>
      <trkpt lat="48.61692" lon="1.96979">
        <ele>109.7</ele>
        <time>2024-01-23T09:18:25Z</time>
      </trkpt>
      <trkpt lat="48.61701" lon="1.96985">
        <ele>109.8</ele>
        <time>2024-01-23T09:18:32Z</time>
      </trkpt>
      <trkpt lat="48.61709" lon="1.96992">
        <ele>109.8</ele>
        <time>2024-01-23T09:18:39Z</time>
      </trkpt>
      <trkpt lat="48.61718" lon="1.96997">
        <ele>110</ele>
        <time>2024-01-23T09:18:47Z</time>
      </trkpt>
      <trkpt lat="48.61728" lon="1.97001">
        <ele>110.2</ele>
        <time>2024-01-23T09:18:54Z</time>
      </trkpt>
      <trkpt lat="48.61738" lon="1.97002">
        <ele>110.5</ele>
        <time>2024-01-23T09:19:01Z</time>
      </trkpt>
      <trkpt lat="48.61747" lon="1.97002">
        <ele>110.9</ele>
        <time>2024-01-23T09:19:09Z</time>
      </trkpt>
      <trkpt lat="48.61757" lon="1.97003">
        <ele>111.2</ele>
        <time>2024-01-23T09:19:16Z</time>
      </trkpt>
      <trkpt lat="48.61767" lon="1.97004">
        <ele>111.6</ele>
        <time>2024-01-23T09:19:24Z</time>
      </trkpt>
      <trkpt lat="48.61776" lon="1.97006">
        <ele>111.9</ele>
        <time>2024-01-23T09:19:31Z</time>
      </trkpt>
      <trkpt lat="48.61786" lon="1.97006">
        <ele>112.2</ele>
        <time>2024-01-23T09:19:39Z</time>
      </trkpt>
      <trkpt lat="48.61786" lon="1.96992">
        <ele>112.6</ele>
        <time>2024-01-23T09:20:01Z</time>
      </trkpt>
      <trkpt lat="48.61781" lon="1.9698">
        <ele>112.9</ele>
        <time>2024-01-23T09:20:17Z</time>
      </trkpt>
      <trkpt lat="48.61773" lon="1.96971">
        <ele>112.9</ele>
        <time>2024-01-23T09:20:25Z</time>
      </trkpt>
      <trkpt lat="48.61769" lon="1.96959">
        <ele>113.2</ele>
        <time>2024-01-23T09:20:35Z</time>
      </trkpt>
      <trkpt lat="48.61761" lon="1.9695">
        <ele>113.2</ele>
        <time>2024-01-23T09:20:42Z</time>
      </trkpt>
      <trkpt lat="48.61753" lon="1.96942">
        <ele>113.2</ele>
        <time>2024-01-23T09:20:48Z</time>
      </trkpt>
      <trkpt lat="48.61747" lon="1.96931">
        <ele>113.4</ele>
        <time>2024-01-23T09:20:54Z</time>
      </trkpt>
      <trkpt lat="48.61742" lon="1.96919">
        <ele>113.6</ele>
        <time>2024-01-23T09:21:05Z</time>
      </trkpt>
      <trkpt lat="48.61735" lon="1.96908">
        <ele>113.6</ele>
        <time>2024-01-23T09:21:12Z</time>
      </trkpt>
      <trkpt lat="48.61728" lon="1.96895">
        <ele>113.4</ele>
        <time>2024-01-23T09:21:19Z</time>
      </trkpt>
      <trkpt lat="48.61722" lon="1.96883">
        <ele>113.2</ele>
        <time>2024-01-23T09:21:25Z</time>
      </trkpt>
      <trkpt lat="48.61715" lon="1.96874">
        <ele>113.3</ele>
        <time>2024-01-23T09:21:30Z</time>
      </trkpt>
      <trkpt lat="48.61709" lon="1.96864">
        <ele>113.4</ele>
        <time>2024-01-23T09:21:35Z</time>
      </trkpt>
      <trkpt lat="48.61701" lon="1.96854">
        <ele>113.3</ele>
        <time>2024-01-23T09:21:44Z</time>
      </trkpt>
      <trkpt lat="48.61695" lon="1.96845">
        <ele>113</ele>
        <time>2024-01-23T09:21:51Z</time>
      </trkpt>
      <trkpt lat="48.61688" lon="1.96833">
        <ele>112.6</ele>
        <time>2024-01-23T09:21:58Z</time>
      </trkpt>
      <trkpt lat="48.61681" lon="1.96824">
        <ele>112.1</ele>
        <time>2024-01-23T09:22:03Z</time>
      </trkpt>
      <trkpt lat="48.61674" lon="1.96813">
        <ele>111.5</ele>
        <time>2024-01-23T09:22:09Z</time>
      </trkpt>
      <trkpt lat="48.61667" lon="1.96804">
        <ele>111.1</ele>
        <time>2024-01-23T09:22:15Z</time>
      </trkpt>
      <trkpt lat="48.6166" lon="1.96795">
        <ele>111</ele>
        <time>2024-01-23T09:22:22Z</time>
      </trkpt>
      <trkpt lat="48.61653" lon="1.96786">
        <ele>110.8</ele>
        <time>2024-01-23T09:22:28Z</time>
      </trkpt>
      <trkpt lat="48.61645" lon="1.96777">
        <ele>110.5</ele>
        <time>2024-01-23T09:22:34Z</time>
      </trkpt>
      <trkpt lat="48.61638" lon="1.96768">
        <ele>109.9</ele>
        <time>2024-01-23T09:22:40Z</time>
      </trkpt>
      <trkpt lat="48.6163" lon="1.96758">
        <ele>109.4</ele>
        <time>2024-01-23T09:22:48Z</time>
      </trkpt>
      <trkpt lat="48.61624" lon="1.96747">
        <ele>109</ele>
        <time>2024-01-23T09:22:54Z</time>
      </trkpt>
      <trkpt lat="48.61617" lon="1.96738">
        <ele>108.8</ele>
        <time>2024-01-23T09:23:00Z</time>
      </trkpt>
      <trkpt lat="48.61611" lon="1.96727">
        <ele>108.8</ele>
        <time>2024-01-23T09:23:07Z</time>
      </trkpt>
      <trkpt lat="48.61604" lon="1.96715">
        <ele>108.6</ele>
        <time>2024-01-23T09:23:15Z</time>
      </trkpt>
      <trkpt lat="48.61598" lon="1.96705">
        <ele>108.3</ele>
        <time>2024-01-23T09:23:21Z</time>
      </trkpt>
      <trkpt lat="48.61589" lon="1.96695">
        <ele>108.2</ele>
        <time>2024-01-23T09:23:27Z</time>
      </trkpt>
      <trkpt lat="48.61584" lon="1.96684">
        <ele>108</ele>
        <time>2024-01-23T09:23:34Z</time>
      </trkpt>
      <trkpt lat="48.61576" lon="1.96675">
        <ele>107.7</ele>
        <time>2024-01-23T09:23:40Z</time>
      </trkpt>
      <trkpt lat="48.61569" lon="1.96666">
        <ele>107.5</ele>
        <time>2024-01-23T09:23:46Z</time>
      </trkpt>
      <trkpt lat="48.61562" lon="1.96656">
        <ele>107.3</ele>
        <time>2024-01-23T09:23:55Z</time>
      </trkpt>
      <trkpt lat="48.61555" lon="1.96646">
        <ele>107</ele>
        <time>2024-01-23T09:24:01Z</time>
      </trkpt>
      <trkpt lat="48.61547" lon="1.96637">
        <ele>106.5</ele>
        <time>2024-01-23T09:24:12Z</time>
      </trkpt>
      <trkpt lat="48.61541" lon="1.96627">
        <ele>106.4</ele>
        <time>2024-01-23T09:24:20Z</time>
      </trkpt>
      <trkpt lat="48.61535" lon="1.96615">
        <ele>106.4</ele>
        <time>2024-01-23T09:24:28Z</time>
      </trkpt>
      <trkpt lat="48.61529" lon="1.96606">
        <ele>106.2</ele>
        <time>2024-01-23T09:24:35Z</time>
      </trkpt>
      <trkpt lat="48.61522" lon="1.96593">
        <ele>106.3</ele>
        <time>2024-01-23T09:24:42Z</time>
      </trkpt>
      <trkpt lat="48.61516" lon="1.9658">
        <ele>106.1</ele>
        <time>2024-01-23T09:24:49Z</time>
      </trkpt>
      <trkpt lat="48.6151" lon="1.9657">
        <ele>105.7</ele>
        <time>2024-01-23T09:24:55Z</time>
      </trkpt>
      <trkpt lat="48.61505" lon="1.96557">
        <ele>105.3</ele>
        <time>2024-01-23T09:25:01Z</time>
      </trkpt>
      <trkpt lat="48.61499" lon="1.96543">
        <ele>105</ele>
        <time>2024-01-23T09:25:07Z</time>
      </trkpt>
      <trkpt lat="48.61493" lon="1.96531">
        <ele>104.8</ele>
        <time>2024-01-23T09:25:14Z</time>
      </trkpt>
      <trkpt lat="48.61487" lon="1.96521">
        <ele>104.7</ele>
        <time>2024-01-23T09:25:23Z</time>
      </trkpt>
      <trkpt lat="48.6148" lon="1.96513">
        <ele>104.4</ele>
        <time>2024-01-23T09:25:30Z</time>
      </trkpt>
      <trkpt lat="48.61472" lon="1.96504">
        <ele>104</ele>
        <time>2024-01-23T09:25:37Z</time>
      </trkpt>
      <trkpt lat="48.61466" lon="1.96492">
        <ele>104</ele>
        <time>2024-01-23T09:25:43Z</time>
      </trkpt>
      <trkpt lat="48.6146" lon="1.96481">
        <ele>104</ele>
        <time>2024-01-23T09:25:49Z</time>
      </trkpt>
      <trkpt lat="48.61455" lon="1.9647">
        <ele>104</ele>
        <time>2024-01-23T09:25:56Z</time>
      </trkpt>
      <trkpt lat="48.61449" lon="1.96458">
        <ele>104</ele>
        <time>2024-01-23T09:26:03Z</time>
      </trkpt>
      <trkpt lat="48.61445" lon="1.96446">
        <ele>104</ele>
        <time>2024-01-23T09:26:25Z</time>
      </trkpt>
      <trkpt lat="48.61436" lon="1.96437">
        <ele>104</ele>
        <time>2024-01-23T09:26:36Z</time>
      </trkpt>
      <trkpt lat="48.61436" lon="1.96423">
        <ele>104</ele>
        <time>2024-01-23T09:27:52Z</time>
      </trkpt>
      <trkpt lat="48.6143" lon="1.9641">
        <ele>104</ele>
        <time>2024-01-23T09:28:36Z</time>
      </trkpt>
      <trkpt lat="48.61427" lon="1.96397">
        <ele>104</ele>
        <time>2024-01-23T09:28:48Z</time>
      </trkpt>
      <trkpt lat="48.61419" lon="1.96389">
        <ele>104</ele>
        <time>2024-01-23T09:29:18Z</time>
      </trkpt>
      <trkpt lat="48.6141" lon="1.96381">
        <ele>104</ele>
        <time>2024-01-23T09:29:35Z</time>
      </trkpt>
      <trkpt lat="48.61402" lon="1.96373">
        <ele>104</ele>
        <time>2024-01-23T09:30:03Z</time>
      </trkpt>
      <trkpt lat="48.61396" lon="1.96362">
        <ele>104</ele>
        <time>2024-01-23T09:30:18Z</time>
      </trkpt>
      <trkpt lat="48.61388" lon="1.96356">
        <ele>104</ele>
        <time>2024-01-23T09:30:31Z</time>
      </trkpt>
      <trkpt lat="48.61382" lon="1.96346">
        <ele>104</ele>
        <time>2024-01-23T09:30:45Z</time>
      </trkpt>
      <trkpt lat="48.61373" lon="1.96337">
        <ele>104</ele>
        <time>2024-01-23T09:30:57Z</time>
      </trkpt>
      <trkpt lat="48.61364" lon="1.96332">
        <ele>104</ele>
        <time>2024-01-23T09:31:07Z</time>
      </trkpt>
      <trkpt lat="48.61357" lon="1.96323">
        <ele>104.1</ele>
        <time>2024-01-23T09:31:29Z</time>
      </trkpt>
      <trkpt lat="48.61348" lon="1.96319">
        <ele>104.3</ele>
        <time>2024-01-23T09:31:41Z</time>
      </trkpt>
      <trkpt lat="48.61339" lon="1.96313">
        <ele>104.6</ele>
        <time>2024-01-23T09:31:55Z</time>
      </trkpt>
      <trkpt lat="48.61331" lon="1.96307">
        <ele>105</ele>
        <time>2024-01-23T09:32:06Z</time>
      </trkpt>
      <trkpt lat="48.61321" lon="1.96305">
        <ele>105</ele>
        <time>2024-01-23T09:34:00Z</time>
      </trkpt>
      <trkpt lat="48.61313" lon="1.96299">
        <ele>105</ele>
        <time>2024-01-23T09:34:07Z</time>
      </trkpt>
      <trkpt lat="48.61306" lon="1.96287">
        <ele>105</ele>
        <time>2024-01-23T09:34:19Z</time>
      </trkpt>
      <trkpt lat="48.61303" lon="1.96274">
        <ele>105.2</ele>
        <time>2024-01-23T09:34:32Z</time>
      </trkpt>
      <trkpt lat="48.61301" lon="1.96261">
        <ele>105.7</ele>
        <time>2024-01-23T09:34:45Z</time>
      </trkpt>
      <trkpt lat="48.61293" lon="1.96252">
        <ele>106</ele>
        <time>2024-01-23T09:34:51Z</time>
      </trkpt>
      <trkpt lat="48.61285" lon="1.96241">
        <ele>106</ele>
        <time>2024-01-23T09:34:56Z</time>
      </trkpt>
      <trkpt lat="48.61282" lon="1.96228">
        <ele>106</ele>
        <time>2024-01-23T09:35:04Z</time>
      </trkpt>
      <trkpt lat="48.61276" lon="1.96217">
        <ele>106.2</ele>
        <time>2024-01-23T09:35:12Z</time>
      </trkpt>
      <trkpt lat="48.61268" lon="1.96206">
        <ele>106.6</ele>
        <time>2024-01-23T09:35:18Z</time>
      </trkpt>
      <trkpt lat="48.6126" lon="1.96198">
        <ele>106.9</ele>
        <time>2024-01-23T09:35:23Z</time>
      </trkpt>
      <trkpt lat="48.61253" lon="1.96189">
        <ele>107</ele>
        <time>2024-01-23T09:35:28Z</time>
      </trkpt>
      <trkpt lat="48.61248" lon="1.96174">
        <ele>106.9</ele>
        <time>2024-01-23T09:35:36Z</time>
      </trkpt>
      <trkpt lat="48.61242" lon="1.96161">
        <ele>106.9</ele>
        <time>2024-01-23T09:35:42Z</time>
      </trkpt>
      <trkpt lat="48.61234" lon="1.96154">
        <ele>106.9</ele>
        <time>2024-01-23T09:35:50Z</time>
      </trkpt>
      <trkpt lat="48.61235" lon="1.96141">
        <ele>107.4</ele>
        <time>2024-01-23T09:36:10Z</time>
      </trkpt>
      <trkpt lat="48.61238" lon="1.96128">
        <ele>107.6</ele>
        <time>2024-01-23T09:37:35Z</time>
      </trkpt>
      <trkpt lat="48.61242" lon="1.96114">
        <ele>107.7</ele>
        <time>2024-01-23T09:37:45Z</time>
      </trkpt>
      <trkpt lat="48.61246" lon="1.96101">
        <ele>108.2</ele>
        <time>2024-01-23T09:37:54Z</time>
      </trkpt>
      <trkpt lat="48.61242" lon="1.96087">
        <ele>108.6</ele>
        <time>2024-01-23T09:38:01Z</time>
      </trkpt>
      <trkpt lat="48.61242" lon="1.96072">
        <ele>108.7</ele>
        <time>2024-01-23T09:38:10Z</time>
      </trkpt>
      <trkpt lat="48.6124" lon="1.96059">
        <ele>108.6</ele>
        <time>2024-01-23T09:38:17Z</time>
      </trkpt>
      <trkpt lat="48.61244" lon="1.96046">
        <ele>109</ele>
        <time>2024-01-23T09:38:27Z</time>
      </trkpt>
      <trkpt lat="48.61242" lon="1.96031">
        <ele>109.3</ele>
        <time>2024-01-23T09:38:34Z</time>
      </trkpt>
      <trkpt lat="48.61242" lon="1.96017">
        <ele>109.8</ele>
        <time>2024-01-23T09:38:41Z</time>
      </trkpt>
      <trkpt lat="48.61243" lon="1.96003">
        <ele>110.4</ele>
        <time>2024-01-23T09:38:49Z</time>
      </trkpt>
      <trkpt lat="48.61241" lon="1.95988">
        <ele>110.8</ele>
        <time>2024-01-23T09:38:55Z</time>
      </trkpt>
      <trkpt lat="48.61239" lon="1.95973">
        <ele>111.2</ele>
        <time>2024-01-23T09:39:02Z</time>
      </trkpt>
      <trkpt lat="48.61235" lon="1.95957">
        <ele>111.7</ele>
        <time>2024-01-23T09:39:09Z</time>
      </trkpt>
      <trkpt lat="48.61229" lon="1.95946">
        <ele>112.2</ele>
        <time>2024-01-23T09:39:14Z</time>
      </trkpt>
      <trkpt lat="48.61228" lon="1.95932">
        <ele>112.8</ele>
        <time>2024-01-23T09:39:21Z</time>
      </trkpt>
      <trkpt lat="48.61224" lon="1.95918">
        <ele>113.1</ele>
        <time>2024-01-23T09:39:27Z</time>
      </trkpt>
      <trkpt lat="48.6122" lon="1.95905">
        <ele>113.3</ele>
        <time>2024-01-23T09:39:33Z</time>
      </trkpt>
      <trkpt lat="48.61218" lon="1.9589">
        <ele>113.7</ele>
        <time>2024-01-23T09:39:40Z</time>
      </trkpt>
      <trkpt lat="48.61215" lon="1.95877">
        <ele>113.8</ele>
        <time>2024-01-23T09:39:46Z</time>
      </trkpt>
      <trkpt lat="48.61209" lon="1.95863">
        <ele>113.6</ele>
        <time>2024-01-23T09:39:52Z</time>
      </trkpt>
      <trkpt lat="48.61209" lon="1.95849">
        <ele>113.8</ele>
        <time>2024-01-23T09:40:00Z</time>
      </trkpt>
      <trkpt lat="48.61216" lon="1.95839">
        <ele>114.5</ele>
        <time>2024-01-23T09:40:08Z</time>
      </trkpt>
      <trkpt lat="48.61218" lon="1.95826">
        <ele>115</ele>
        <time>2024-01-23T09:40:15Z</time>
      </trkpt>
      <trkpt lat="48.61222" lon="1.95811">
        <ele>115.8</ele>
        <time>2024-01-23T09:40:25Z</time>
      </trkpt>
      <trkpt lat="48.61223" lon="1.95796">
        <ele>116</ele>
        <time>2024-01-23T09:40:31Z</time>
      </trkpt>
      <trkpt lat="48.61225" lon="1.95781">
        <ele>116.2</ele>
        <time>2024-01-23T09:40:36Z</time>
      </trkpt>
      <trkpt lat="48.61226" lon="1.95766">
        <ele>116.6</ele>
        <time>2024-01-23T09:40:41Z</time>
      </trkpt>
      <trkpt lat="48.61225" lon="1.95752">
        <ele>117</ele>
        <time>2024-01-23T09:40:46Z</time>
      </trkpt>
      <trkpt lat="48.61223" lon="1.95737">
        <ele>117</ele>
        <time>2024-01-23T09:40:51Z</time>
      </trkpt>
      <trkpt lat="48.61223" lon="1.95723">
        <ele>117.1</ele>
        <time>2024-01-23T09:40:57Z</time>
      </trkpt>
      <trkpt lat="48.61222" lon="1.9571">
        <ele>117.4</ele>
        <time>2024-01-23T09:41:05Z</time>
      </trkpt>
      <trkpt lat="48.61223" lon="1.95694">
        <ele>118</ele>
        <time>2024-01-23T09:41:18Z</time>
      </trkpt>
      <trkpt lat="48.61223" lon="1.9568">
        <ele>118.1</ele>
        <time>2024-01-23T09:41:25Z</time>
      </trkpt>
      <trkpt lat="48.61226" lon="1.95666">
        <ele>118.3</ele>
        <time>2024-01-23T09:41:34Z</time>
      </trkpt>
      <trkpt lat="48.61231" lon="1.95654">
        <ele>119.1</ele>
        <time>2024-01-23T09:41:45Z</time>
      </trkpt>
      <trkpt lat="48.61232" lon="1.95638">
        <ele>119.7</ele>
        <time>2024-01-23T09:41:53Z</time>
      </trkpt>
      <trkpt lat="48.61236" lon="1.95625">
        <ele>120</ele>
        <time>2024-01-23T09:42:01Z</time>
      </trkpt>
      <trkpt lat="48.6124" lon="1.95611">
        <ele>120.3</ele>
        <time>2024-01-23T09:42:10Z</time>
      </trkpt>
      <trkpt lat="48.61244" lon="1.95597">
        <ele>121</ele>
        <time>2024-01-23T09:42:18Z</time>
      </trkpt>
      <trkpt lat="48.61245" lon="1.95582">
        <ele>121.5</ele>
        <time>2024-01-23T09:42:26Z</time>
      </trkpt>
      <trkpt lat="48.61247" lon="1.95568">
        <ele>121.7</ele>
        <time>2024-01-23T09:42:31Z</time>
      </trkpt>
      <trkpt lat="48.6125" lon="1.95554">
        <ele>122</ele>
        <time>2024-01-23T09:42:36Z</time>
      </trkpt>
      <trkpt lat="48.61252" lon="1.9554">
        <ele>122.9</ele>
        <time>2024-01-23T09:42:42Z</time>
      </trkpt>
      <trkpt lat="48.61249" lon="1.95524">
        <ele>122.9</ele>
        <time>2024-01-23T09:42:47Z</time>
      </trkpt>
      <trkpt lat="48.61251" lon="1.95511">
        <ele>123.1</ele>
        <time>2024-01-23T09:42:53Z</time>
      </trkpt>
      <trkpt lat="48.61257" lon="1.95498">
        <ele>124</ele>
        <time>2024-01-23T09:43:00Z</time>
      </trkpt>
      <trkpt lat="48.6126" lon="1.95485">
        <ele>124.6</ele>
        <time>2024-01-23T09:43:08Z</time>
      </trkpt>
      <trkpt lat="48.61265" lon="1.95473">
        <ele>125.6</ele>
        <time>2024-01-23T09:43:16Z</time>
      </trkpt>
      <trkpt lat="48.61271" lon="1.95464">
        <ele>126.6</ele>
        <time>2024-01-23T09:43:26Z</time>
      </trkpt>
      <trkpt lat="48.61274" lon="1.95449">
        <ele>126.5</ele>
        <time>2024-01-23T09:43:34Z</time>
      </trkpt>
      <trkpt lat="48.61276" lon="1.95435">
        <ele>126.8</ele>
        <time>2024-01-23T09:43:43Z</time>
      </trkpt>
      <trkpt lat="48.61278" lon="1.95421">
        <ele>127</ele>
        <time>2024-01-23T09:43:51Z</time>
      </trkpt>
      <trkpt lat="48.61281" lon="1.95407">
        <ele>127</ele>
        <time>2024-01-23T09:44:01Z</time>
      </trkpt>
      <trkpt lat="48.61279" lon="1.95393">
        <ele>126.3</ele>
        <time>2024-01-23T09:44:06Z</time>
      </trkpt>
      <trkpt lat="48.61277" lon="1.95379">
        <ele>126</ele>
        <time>2024-01-23T09:44:13Z</time>
      </trkpt>
      <trkpt lat="48.61276" lon="1.95365">
        <ele>125.8</ele>
        <time>2024-01-23T09:44:19Z</time>
      </trkpt>
      <trkpt lat="48.61274" lon="1.95351">
        <ele>125.6</ele>
        <time>2024-01-23T09:44:24Z</time>
      </trkpt>
      <trkpt lat="48.61273" lon="1.95337">
        <ele>125.4</ele>
        <time>2024-01-23T09:44:31Z</time>
      </trkpt>
      <trkpt lat="48.61274" lon="1.95324">
        <ele>125.6</ele>
        <time>2024-01-23T09:44:40Z</time>
      </trkpt>
      <trkpt lat="48.61276" lon="1.95309">
        <ele>125.8</ele>
        <time>2024-01-23T09:44:48Z</time>
      </trkpt>
      <trkpt lat="48.61281" lon="1.95297">
        <ele>126.7</ele>
        <time>2024-01-23T09:44:57Z</time>
      </trkpt>
      <trkpt lat="48.61282" lon="1.95282">
        <ele>127.3</ele>
        <time>2024-01-23T09:45:04Z</time>
      </trkpt>
      <trkpt lat="48.61285" lon="1.95268">
        <ele>127.7</ele>
        <time>2024-01-23T09:45:11Z</time>
      </trkpt>
      <trkpt lat="48.61287" lon="1.95254">
        <ele>128</ele>
        <time>2024-01-23T09:45:18Z</time>
      </trkpt>
      <trkpt lat="48.61291" lon="1.95239">
        <ele>128.4</ele>
        <time>2024-01-23T09:45:25Z</time>
      </trkpt>
      <trkpt lat="48.61294" lon="1.95225">
        <ele>128.7</ele>
        <time>2024-01-23T09:45:33Z</time>
      </trkpt>
      <trkpt lat="48.61297" lon="1.95209">
        <ele>129.4</ele>
        <time>2024-01-23T09:45:40Z</time>
      </trkpt>
      <trkpt lat="48.61297" lon="1.95195">
        <ele>129.8</ele>
        <time>2024-01-23T09:45:46Z</time>
      </trkpt>
      <trkpt lat="48.61302" lon="1.95182">
        <ele>130.5</ele>
        <time>2024-01-23T09:45:53Z</time>
      </trkpt>
      <trkpt lat="48.61304" lon="1.95167">
        <ele>130.8</ele>
        <time>2024-01-23T09:46:00Z</time>
      </trkpt>
      <trkpt lat="48.61307" lon="1.95152">
        <ele>131.1</ele>
        <time>2024-01-23T09:46:08Z</time>
      </trkpt>
      <trkpt lat="48.61309" lon="1.95137">
        <ele>131.5</ele>
        <time>2024-01-23T09:46:15Z</time>
      </trkpt>
      <trkpt lat="48.6131" lon="1.95123">
        <ele>131.7</ele>
        <time>2024-01-23T09:46:21Z</time>
      </trkpt>
      <trkpt lat="48.61313" lon="1.95108">
        <ele>132.1</ele>
        <time>2024-01-23T09:46:28Z</time>
      </trkpt>
      <trkpt lat="48.61312" lon="1.95093">
        <ele>131.9</ele>
        <time>2024-01-23T09:46:33Z</time>
      </trkpt>
      <trkpt lat="48.61309" lon="1.95079">
        <ele>131.5</ele>
        <time>2024-01-23T09:46:38Z</time>
      </trkpt>
      <trkpt lat="48.61309" lon="1.95064">
        <ele>131.6</ele>
        <time>2024-01-23T09:46:45Z</time>
      </trkpt>
      <trkpt lat="48.6131" lon="1.95049">
        <ele>131.6</ele>
        <time>2024-01-23T09:46:51Z</time>
      </trkpt>
      <trkpt lat="48.61316" lon="1.95038">
        <ele>132.2</ele>
        <time>2024-01-23T09:46:57Z</time>
      </trkpt>
      <trkpt lat="48.61315" lon="1.95019">
        <ele>131.8</ele>
        <time>2024-01-23T09:47:02Z</time>
      </trkpt>
      <trkpt lat="48.61315" lon="1.95005">
        <ele>131.5</ele>
        <time>2024-01-23T09:47:09Z</time>
      </trkpt>
      <trkpt lat="48.61316" lon="1.9499">
        <ele>131.8</ele>
        <time>2024-01-23T09:47:21Z</time>
      </trkpt>
      <trkpt lat="48.61322" lon="1.94978">
        <ele>132.7</ele>
        <time>2024-01-23T09:47:32Z</time>
      </trkpt>
      <trkpt lat="48.61328" lon="1.94967">
        <ele>133.4</ele>
        <time>2024-01-23T09:47:41Z</time>
      </trkpt>
      <trkpt lat="48.61331" lon="1.94954">
        <ele>133.7</ele>
        <time>2024-01-23T09:47:49Z</time>
      </trkpt>
      <trkpt lat="48.61331" lon="1.94939">
        <ele>133.7</ele>
        <time>2024-01-23T09:47:57Z</time>
      </trkpt>
      <trkpt lat="48.61328" lon="1.94924">
        <ele>133.5</ele>
        <time>2024-01-23T09:48:03Z</time>
      </trkpt>
      <trkpt lat="48.61327" lon="1.94909">
        <ele>133.4</ele>
        <time>2024-01-23T09:48:09Z</time>
      </trkpt>
      <trkpt lat="48.61328" lon="1.94895">
        <ele>133.5</ele>
        <time>2024-01-23T09:48:16Z</time>
      </trkpt>
      <trkpt lat="48.6133" lon="1.9488">
        <ele>133.6</ele>
        <time>2024-01-23T09:48:24Z</time>
      </trkpt>
      <trkpt lat="48.6133" lon="1.94865">
        <ele>133.6</ele>
        <time>2024-01-23T09:48:30Z</time>
      </trkpt>
      <trkpt lat="48.61328" lon="1.94849">
        <ele>133.5</ele>
        <time>2024-01-23T09:48:37Z</time>
      </trkpt>
      <trkpt lat="48.61329" lon="1.94834">
        <ele>133.7</ele>
        <time>2024-01-23T09:48:46Z</time>
      </trkpt>
      <trkpt lat="48.6133" lon="1.9482">
        <ele>134.3</ele>
        <time>2024-01-23T09:48:54Z</time>
      </trkpt>
      <trkpt lat="48.6133" lon="1.94806">
        <ele>134.8</ele>
        <time>2024-01-23T09:49:01Z</time>
      </trkpt>
      <trkpt lat="48.6133" lon="1.94791">
        <ele>135.3</ele>
        <time>2024-01-23T09:49:08Z</time>
      </trkpt>
      <trkpt lat="48.61336" lon="1.9478">
        <ele>136.2</ele>
        <time>2024-01-23T09:49:15Z</time>
      </trkpt>
      <trkpt lat="48.61341" lon="1.94768">
        <ele>137.4</ele>
        <time>2024-01-23T09:49:24Z</time>
      </trkpt>
      <trkpt lat="48.61347" lon="1.94757">
        <ele>138.6</ele>
        <time>2024-01-23T09:49:31Z</time>
      </trkpt>
      <trkpt lat="48.61352" lon="1.94745">
        <ele>139.6</ele>
        <time>2024-01-23T09:49:39Z</time>
      </trkpt>
      <trkpt lat="48.61358" lon="1.94733">
        <ele>140.9</ele>
        <time>2024-01-23T09:49:47Z</time>
      </trkpt>
      <trkpt lat="48.61364" lon="1.94722">
        <ele>142.2</ele>
        <time>2024-01-23T09:49:56Z</time>
      </trkpt>
      <trkpt lat="48.61368" lon="1.94709">
        <ele>142.9</ele>
        <time>2024-01-23T09:50:03Z</time>
      </trkpt>
      <trkpt lat="48.61372" lon="1.94697">
        <ele>143.7</ele>
        <time>2024-01-23T09:50:10Z</time>
      </trkpt>
      <trkpt lat="48.61378" lon="1.94686">
        <ele>144.3</ele>
        <time>2024-01-23T09:50:19Z</time>
      </trkpt>
      <trkpt lat="48.61383" lon="1.94673">
        <ele>144.8</ele>
        <time>2024-01-23T09:50:28Z</time>
      </trkpt>
      <trkpt lat="48.61388" lon="1.9466">
        <ele>145.2</ele>
        <time>2024-01-23T09:50:37Z</time>
      </trkpt>
      <trkpt lat="48.61393" lon="1.94648">
        <ele>145.6</ele>
        <time>2024-01-23T09:50:46Z</time>
      </trkpt>
      <trkpt lat="48.61398" lon="1.94636">
        <ele>145.7</ele>
        <time>2024-01-23T09:50:55Z</time>
      </trkpt>
      <trkpt lat="48.61406" lon="1.94628">
        <ele>145.6</ele>
        <time>2024-01-23T09:51:05Z</time>
      </trkpt>
      <trkpt lat="48.61398" lon="1.94621">
        <ele>145.9</ele>
        <time>2024-01-23T09:51:27Z</time>
      </trkpt>
      <trkpt lat="48.61394" lon="1.94608">
        <ele>146.1</ele>
        <time>2024-01-23T09:51:53Z</time>
      </trkpt>
      <trkpt lat="48.61388" lon="1.94597">
        <ele>146.5</ele>
        <time>2024-01-23T09:52:07Z</time>
      </trkpt>
      <trkpt lat="48.6138" lon="1.94588">
        <ele>146.5</ele>
        <time>2024-01-23T09:52:17Z</time>
      </trkpt>
      <trkpt lat="48.61372" lon="1.9458">
        <ele>146.5</ele>
        <time>2024-01-23T09:52:25Z</time>
      </trkpt>
      <trkpt lat="48.61365" lon="1.94572">
        <ele>146.5</ele>
        <time>2024-01-23T09:52:32Z</time>
      </trkpt>
      <trkpt lat="48.61357" lon="1.94562">
        <ele>146.4</ele>
        <time>2024-01-23T09:52:39Z</time>
      </trkpt>
      <trkpt lat="48.6135" lon="1.94551">
        <ele>145.8</ele>
        <time>2024-01-23T09:52:45Z</time>
      </trkpt>
      <trkpt lat="48.61343" lon="1.94542">
        <ele>145</ele>
        <time>2024-01-23T09:52:52Z</time>
      </trkpt>
      <trkpt lat="48.61335" lon="1.94534">
        <ele>144.2</ele>
        <time>2024-01-23T09:53:00Z</time>
      </trkpt>
      <trkpt lat="48.61327" lon="1.94527">
        <ele>143.5</ele>
        <time>2024-01-23T09:53:07Z</time>
      </trkpt>
      <trkpt lat="48.61322" lon="1.94515">
        <ele>143.2</ele>
        <time>2024-01-23T09:53:16Z</time>
      </trkpt>
      <trkpt lat="48.61328" lon="1.94504">
        <ele>143.6</ele>
        <time>2024-01-23T09:53:24Z</time>
      </trkpt>
      <trkpt lat="48.61333" lon="1.94491">
        <ele>144</ele>
        <time>2024-01-23T09:53:32Z</time>
      </trkpt>
      <trkpt lat="48.61337" lon="1.94477">
        <ele>144.4</ele>
        <time>2024-01-23T09:53:39Z</time>
      </trkpt>
      <trkpt lat="48.61345" lon="1.9447">
        <ele>145.2</ele>
        <time>2024-01-23T09:53:47Z</time>
      </trkpt>
      <trkpt lat="48.61348" lon="1.94455">
        <ele>145.5</ele>
        <time>2024-01-23T09:53:54Z</time>
      </trkpt>
      <trkpt lat="48.61353" lon="1.94443">
        <ele>146.1</ele>
        <time>2024-01-23T09:54:03Z</time>
      </trkpt>
      <trkpt lat="48.61354" lon="1.94429">
        <ele>146.4</ele>
        <time>2024-01-23T09:54:10Z</time>
      </trkpt>
      <trkpt lat="48.61358" lon="1.94416">
        <ele>146.8</ele>
        <time>2024-01-23T09:54:19Z</time>
      </trkpt>
      <trkpt lat="48.61361" lon="1.94402">
        <ele>147</ele>
        <time>2024-01-23T09:54:27Z</time>
      </trkpt>
      <trkpt lat="48.61362" lon="1.94388">
        <ele>147.1</ele>
        <time>2024-01-23T09:54:33Z</time>
      </trkpt>
      <trkpt lat="48.61364" lon="1.94372">
        <ele>147.8</ele>
        <time>2024-01-23T09:54:40Z</time>
      </trkpt>
      <trkpt lat="48.61367" lon="1.94359">
        <ele>148.4</ele>
        <time>2024-01-23T09:54:47Z</time>
      </trkpt>
      <trkpt lat="48.61369" lon="1.94344">
        <ele>148.6</ele>
        <time>2024-01-23T09:54:55Z</time>
      </trkpt>
      <trkpt lat="48.6137" lon="1.94329">
        <ele>148.9</ele>
        <time>2024-01-23T09:55:02Z</time>
      </trkpt>
      <trkpt lat="48.61372" lon="1.94315">
        <ele>149.7</ele>
        <time>2024-01-23T09:55:09Z</time>
      </trkpt>
      <trkpt lat="48.61373" lon="1.94299">
        <ele>150.6</ele>
        <time>2024-01-23T09:55:16Z</time>
      </trkpt>
      <trkpt lat="48.61373" lon="1.94285">
        <ele>151.3</ele>
        <time>2024-01-23T09:55:22Z</time>
      </trkpt>
      <trkpt lat="48.61373" lon="1.94271">
        <ele>152.1</ele>
        <time>2024-01-23T09:55:28Z</time>
      </trkpt>
      <trkpt lat="48.6137" lon="1.94256">
        <ele>152.6</ele>
        <time>2024-01-23T09:55:35Z</time>
      </trkpt>
      <trkpt lat="48.61374" lon="1.94242">
        <ele>154.2</ele>
        <time>2024-01-23T09:55:44Z</time>
      </trkpt>
      <trkpt lat="48.61372" lon="1.94227">
        <ele>155.2</ele>
        <time>2024-01-23T09:55:50Z</time>
      </trkpt>
      <trkpt lat="48.61372" lon="1.94212">
        <ele>156.3</ele>
        <time>2024-01-23T09:55:59Z</time>
      </trkpt>
      <trkpt lat="48.61371" lon="1.94198">
        <ele>157.1</ele>
        <time>2024-01-23T09:56:07Z</time>
      </trkpt>
      <trkpt lat="48.61371" lon="1.94185">
        <ele>158.1</ele>
        <time>2024-01-23T09:56:19Z</time>
      </trkpt>
      <trkpt lat="48.6137" lon="1.9417">
        <ele>158.7</ele>
        <time>2024-01-23T09:56:27Z</time>
      </trkpt>
      <trkpt lat="48.6137" lon="1.94157">
        <ele>159.3</ele>
        <time>2024-01-23T09:56:34Z</time>
      </trkpt>
      <trkpt lat="48.61371" lon="1.94142">
        <ele>159.9</ele>
        <time>2024-01-23T09:56:41Z</time>
      </trkpt>
      <trkpt lat="48.61374" lon="1.94129">
        <ele>160.7</ele>
        <time>2024-01-23T09:56:48Z</time>
      </trkpt>
      <trkpt lat="48.61377" lon="1.94115">
        <ele>161.6</ele>
        <time>2024-01-23T09:56:56Z</time>
      </trkpt>
      <trkpt lat="48.6138" lon="1.94101">
        <ele>162.4</ele>
        <time>2024-01-23T09:57:04Z</time>
      </trkpt>
      <trkpt lat="48.61387" lon="1.9409">
        <ele>163.6</ele>
        <time>2024-01-23T09:57:13Z</time>
      </trkpt>
      <trkpt lat="48.61394" lon="1.94081">
        <ele>164.2</ele>
        <time>2024-01-23T09:57:22Z</time>
      </trkpt>
      <trkpt lat="48.61401" lon="1.94071">
        <ele>164.6</ele>
        <time>2024-01-23T09:57:30Z</time>
      </trkpt>
      <trkpt lat="48.61406" lon="1.94059">
        <ele>165.2</ele>
        <time>2024-01-23T09:57:38Z</time>
      </trkpt>
      <trkpt lat="48.61414" lon="1.94051">
        <ele>165.8</ele>
        <time>2024-01-23T09:57:46Z</time>
      </trkpt>
      <trkpt lat="48.61421" lon="1.9404">
        <ele>166</ele>
        <time>2024-01-23T09:57:53Z</time>
      </trkpt>
      <trkpt lat="48.61428" lon="1.9403">
        <ele>166</ele>
        <time>2024-01-23T09:58:00Z</time>
      </trkpt>
      <trkpt lat="48.61431" lon="1.94018">
        <ele>165.5</ele>
        <time>2024-01-23T09:58:07Z</time>
      </trkpt>
      <trkpt lat="48.61438" lon="1.94007">
        <ele>165.1</ele>
        <time>2024-01-23T09:58:14Z</time>
      </trkpt>
      <trkpt lat="48.61443" lon="1.93996">
        <ele>165</ele>
        <time>2024-01-23T09:58:22Z</time>
      </trkpt>
      <trkpt lat="48.61449" lon="1.93983">
        <ele>165.2</ele>
        <time>2024-01-23T09:58:29Z</time>
      </trkpt>
      <trkpt lat="48.61455" lon="1.93972">
        <ele>165.4</ele>
        <time>2024-01-23T09:58:35Z</time>
      </trkpt>
      <trkpt lat="48.61461" lon="1.93961">
        <ele>165</ele>
        <time>2024-01-23T09:58:41Z</time>
      </trkpt>
      <trkpt lat="48.61467" lon="1.93949">
        <ele>164.8</ele>
        <time>2024-01-23T09:58:48Z</time>
      </trkpt>
      <trkpt lat="48.61475" lon="1.93939">
        <ele>164.9</ele>
        <time>2024-01-23T09:58:57Z</time>
      </trkpt>
      <trkpt lat="48.6148" lon="1.93928">
        <ele>164.9</ele>
        <time>2024-01-23T09:59:04Z</time>
      </trkpt>
      <trkpt lat="48.61486" lon="1.93917">
        <ele>165</ele>
        <time>2024-01-23T09:59:12Z</time>
      </trkpt>
      <trkpt lat="48.61493" lon="1.93905">
        <ele>165.4</ele>
        <time>2024-01-23T09:59:19Z</time>
      </trkpt>
      <trkpt lat="48.61498" lon="1.93893">
        <ele>165.8</ele>
        <time>2024-01-23T09:59:26Z</time>
      </trkpt>
      <trkpt lat="48.61503" lon="1.93879">
        <ele>165.8</ele>
        <time>2024-01-23T09:59:33Z</time>
      </trkpt>
      <trkpt lat="48.61508" lon="1.93868">
        <ele>165.8</ele>
        <time>2024-01-23T09:59:40Z</time>
      </trkpt>
      <trkpt lat="48.61512" lon="1.93855">
        <ele>165.6</ele>
        <time>2024-01-23T09:59:46Z</time>
      </trkpt>
      <trkpt lat="48.61517" lon="1.93843">
        <ele>165.6</ele>
        <time>2024-01-23T09:59:53Z</time>
      </trkpt>
      <trkpt lat="48.61522" lon="1.93831">
        <ele>165.6</ele>
        <time>2024-01-23T10:00:00Z</time>
      </trkpt>
      <trkpt lat="48.6153" lon="1.9382">
        <ele>166.1</ele>
        <time>2024-01-23T10:00:07Z</time>
      </trkpt>
      <trkpt lat="48.61537" lon="1.93811">
        <ele>166.3</ele>
        <time>2024-01-23T10:00:14Z</time>
      </trkpt>
      <trkpt lat="48.61545" lon="1.93802">
        <ele>166.5</ele>
        <time>2024-01-23T10:00:22Z</time>
      </trkpt>
      <trkpt lat="48.61553" lon="1.93795">
        <ele>166.5</ele>
        <time>2024-01-23T10:00:30Z</time>
      </trkpt>
      <trkpt lat="48.61561" lon="1.93786">
        <ele>166.4</ele>
        <time>2024-01-23T10:00:39Z</time>
      </trkpt>
      <trkpt lat="48.61569" lon="1.93778">
        <ele>166.5</ele>
        <time>2024-01-23T10:00:47Z</time>
      </trkpt>
      <trkpt lat="48.61576" lon="1.93766">
        <ele>166.3</ele>
        <time>2024-01-23T10:00:54Z</time>
      </trkpt>
      <trkpt lat="48.61579" lon="1.93753">
        <ele>166</ele>
        <time>2024-01-23T10:00:59Z</time>
      </trkpt>
      <trkpt lat="48.61584" lon="1.9374">
        <ele>165.7</ele>
        <time>2024-01-23T10:01:04Z</time>
      </trkpt>
      <trkpt lat="48.61591" lon="1.9373">
        <ele>165.5</ele>
        <time>2024-01-23T10:01:19Z</time>
      </trkpt>
      <trkpt lat="48.61599" lon="1.93722">
        <ele>165.6</ele>
        <time>2024-01-23T10:01:27Z</time>
      </trkpt>
      <trkpt lat="48.61605" lon="1.93711">
        <ele>165.8</ele>
        <time>2024-01-23T10:01:35Z</time>
      </trkpt>
      <trkpt lat="48.61611" lon="1.937">
        <ele>166</ele>
        <time>2024-01-23T10:01:42Z</time>
      </trkpt>
      <trkpt lat="48.61617" lon="1.93689">
        <ele>166.2</ele>
        <time>2024-01-23T10:01:49Z</time>
      </trkpt>
      <trkpt lat="48.61624" lon="1.93679">
        <ele>166.5</ele>
        <time>2024-01-23T10:01:57Z</time>
      </trkpt>
      <trkpt lat="48.61627" lon="1.93665">
        <ele>166.6</ele>
        <time>2024-01-23T10:02:05Z</time>
      </trkpt>
      <trkpt lat="48.61629" lon="1.9365">
        <ele>166.6</ele>
        <time>2024-01-23T10:02:11Z</time>
      </trkpt>
      <trkpt lat="48.61633" lon="1.93638">
        <ele>166.8</ele>
        <time>2024-01-23T10:02:17Z</time>
      </trkpt>
      <trkpt lat="48.61639" lon="1.93627">
        <ele>167</ele>
        <time>2024-01-23T10:02:24Z</time>
      </trkpt>
      <trkpt lat="48.61641" lon="1.93613">
        <ele>167</ele>
        <time>2024-01-23T10:02:31Z</time>
      </trkpt>
      <trkpt lat="48.61645" lon="1.93598">
        <ele>167.1</ele>
        <time>2024-01-23T10:02:39Z</time>
      </trkpt>
      <trkpt lat="48.6165" lon="1.93584">
        <ele>167.4</ele>
        <time>2024-01-23T10:02:46Z</time>
      </trkpt>
      <trkpt lat="48.61651" lon="1.9357">
        <ele>167.4</ele>
        <time>2024-01-23T10:02:52Z</time>
      </trkpt>
      <trkpt lat="48.61651" lon="1.93555">
        <ele>167.4</ele>
        <time>2024-01-23T10:02:59Z</time>
      </trkpt>
      <trkpt lat="48.61655" lon="1.93541">
        <ele>167.6</ele>
        <time>2024-01-23T10:03:06Z</time>
      </trkpt>
      <trkpt lat="48.61659" lon="1.93528">
        <ele>167.7</ele>
        <time>2024-01-23T10:03:13Z</time>
      </trkpt>
      <trkpt lat="48.61662" lon="1.93514">
        <ele>167.8</ele>
        <time>2024-01-23T10:03:20Z</time>
      </trkpt>
      <trkpt lat="48.61666" lon="1.93501">
        <ele>168</ele>
        <time>2024-01-23T10:03:26Z</time>
      </trkpt>
      <trkpt lat="48.61669" lon="1.93487">
        <ele>168.1</ele>
        <time>2024-01-23T10:03:33Z</time>
      </trkpt>
      <trkpt lat="48.6167" lon="1.93473">
        <ele>168.1</ele>
        <time>2024-01-23T10:03:41Z</time>
      </trkpt>
      <trkpt lat="48.61672" lon="1.93459">
        <ele>168.6</ele>
        <time>2024-01-23T10:03:49Z</time>
      </trkpt>
      <trkpt lat="48.61675" lon="1.93445">
        <ele>169</ele>
        <time>2024-01-23T10:03:57Z</time>
      </trkpt>
      <trkpt lat="48.61675" lon="1.9343">
        <ele>169</ele>
        <time>2024-01-23T10:04:05Z</time>
      </trkpt>
      <trkpt lat="48.61679" lon="1.93415">
        <ele>169</ele>
        <time>2024-01-23T10:04:14Z</time>
      </trkpt>
      <trkpt lat="48.61681" lon="1.934">
        <ele>169.3</ele>
        <time>2024-01-23T10:04:21Z</time>
      </trkpt>
      <trkpt lat="48.61682" lon="1.93387">
        <ele>169.6</ele>
        <time>2024-01-23T10:04:28Z</time>
      </trkpt>
      <trkpt lat="48.61684" lon="1.93371">
        <ele>169.6</ele>
        <time>2024-01-23T10:04:36Z</time>
      </trkpt>
      <trkpt lat="48.61684" lon="1.93357">
        <ele>169.7</ele>
        <time>2024-01-23T10:04:43Z</time>
      </trkpt>
      <trkpt lat="48.61682" lon="1.93342">
        <ele>169.9</ele>
        <time>2024-01-23T10:04:49Z</time>
      </trkpt>
      <trkpt lat="48.61681" lon="1.93327">
        <ele>170</ele>
        <time>2024-01-23T10:04:56Z</time>
      </trkpt>
      <trkpt lat="48.61682" lon="1.93313">
        <ele>170</ele>
        <time>2024-01-23T10:05:03Z</time>
      </trkpt>
      <trkpt lat="48.61683" lon="1.93298">
        <ele>170</ele>
        <time>2024-01-23T10:05:10Z</time>
      </trkpt>
      <trkpt lat="48.61685" lon="1.93283">
        <ele>170</ele>
        <time>2024-01-23T10:05:18Z</time>
      </trkpt>
      <trkpt lat="48.61687" lon="1.93269">
        <ele>170.3</ele>
        <time>2024-01-23T10:05:25Z</time>
      </trkpt>
      <trkpt lat="48.61691" lon="1.93255">
        <ele>170.8</ele>
        <time>2024-01-23T10:05:34Z</time>
      </trkpt>
      <trkpt lat="48.61692" lon="1.9324">
        <ele>171</ele>
        <time>2024-01-23T10:05:41Z</time>
      </trkpt>
      <trkpt lat="48.61692" lon="1.93225">
        <ele>171</ele>
        <time>2024-01-23T10:05:48Z</time>
      </trkpt>
      <trkpt lat="48.61692" lon="1.9321">
        <ele>171</ele>
        <time>2024-01-23T10:05:56Z</time>
      </trkpt>
      <trkpt lat="48.61691" lon="1.93197">
        <ele>171</ele>
        <time>2024-01-23T10:06:02Z</time>
      </trkpt>
      <trkpt lat="48.61688" lon="1.93183">
        <ele>171</ele>
        <time>2024-01-23T10:06:08Z</time>
      </trkpt>
      <trkpt lat="48.61687" lon="1.93168">
        <ele>171</ele>
        <time>2024-01-23T10:06:15Z</time>
      </trkpt>
      <trkpt lat="48.61684" lon="1.93154">
        <ele>171</ele>
        <time>2024-01-23T10:06:21Z</time>
      </trkpt>
      <trkpt lat="48.61682" lon="1.93141">
        <ele>171</ele>
        <time>2024-01-23T10:06:26Z</time>
      </trkpt>
      <trkpt lat="48.61677" lon="1.93128">
        <ele>171.4</ele>
        <time>2024-01-23T10:06:32Z</time>
      </trkpt>
      <trkpt lat="48.61675" lon="1.93113">
        <ele>171.9</ele>
        <time>2024-01-23T10:06:39Z</time>
      </trkpt>
      <trkpt lat="48.61673" lon="1.93098">
        <ele>172</ele>
        <time>2024-01-23T10:06:46Z</time>
      </trkpt>
      <trkpt lat="48.61671" lon="1.93084">
        <ele>172</ele>
        <time>2024-01-23T10:06:53Z</time>
      </trkpt>
      <trkpt lat="48.61669" lon="1.93068">
        <ele>172</ele>
        <time>2024-01-23T10:07:00Z</time>
      </trkpt>
      <trkpt lat="48.61666" lon="1.93056">
        <ele>172</ele>
        <time>2024-01-23T10:07:06Z</time>
      </trkpt>
      <trkpt lat="48.61664" lon="1.93042">
        <ele>172</ele>
        <time>2024-01-23T10:07:13Z</time>
      </trkpt>
      <trkpt lat="48.61662" lon="1.93028">
        <ele>172</ele>
        <time>2024-01-23T10:07:20Z</time>
      </trkpt>
      <trkpt lat="48.61659" lon="1.93015">
        <ele>172</ele>
        <time>2024-01-23T10:07:25Z</time>
      </trkpt>
      <trkpt lat="48.61657" lon="1.93002">
        <ele>172</ele>
        <time>2024-01-23T10:07:30Z</time>
      </trkpt>
      <trkpt lat="48.61657" lon="1.92987">
        <ele>172</ele>
        <time>2024-01-23T10:07:38Z</time>
      </trkpt>
      <trkpt lat="48.61659" lon="1.92973">
        <ele>172</ele>
        <time>2024-01-23T10:07:47Z</time>
      </trkpt>
      <trkpt lat="48.61658" lon="1.92959">
        <ele>172.5</ele>
        <time>2024-01-23T10:09:49Z</time>
      </trkpt>
      <trkpt lat="48.61653" lon="1.92948">
        <ele>172.9</ele>
        <time>2024-01-23T10:10:26Z</time>
      </trkpt>
      <trkpt lat="48.61646" lon="1.92957">
        <ele>172.5</ele>
        <time>2024-01-23T10:10:44Z</time>
      </trkpt>
      <trkpt lat="48.61637" lon="1.92962">
        <ele>172.4</ele>
        <time>2024-01-23T10:10:54Z</time>
      </trkpt>
      <trkpt lat="48.61629" lon="1.92967">
        <ele>172.2</ele>
        <time>2024-01-23T10:11:03Z</time>
      </trkpt>
      <trkpt lat="48.61619" lon="1.92971">
        <ele>172</ele>
        <time>2024-01-23T10:11:13Z</time>
      </trkpt>
      <trkpt lat="48.6161" lon="1.92976">
        <ele>172</ele>
        <time>2024-01-23T10:11:21Z</time>
      </trkpt>
      <trkpt lat="48.61602" lon="1.92982">
        <ele>172</ele>
        <time>2024-01-23T10:11:29Z</time>
      </trkpt>
      <trkpt lat="48.61593" lon="1.92988">
        <ele>172</ele>
        <time>2024-01-23T10:11:36Z</time>
      </trkpt>
      <trkpt lat="48.61584" lon="1.92993">
        <ele>172</ele>
        <time>2024-01-23T10:11:44Z</time>
      </trkpt>
      <trkpt lat="48.61575" lon="1.93">
        <ele>172</ele>
        <time>2024-01-23T10:11:51Z</time>
      </trkpt>
      <trkpt lat="48.61567" lon="1.93007">
        <ele>172</ele>
        <time>2024-01-23T10:11:58Z</time>
      </trkpt>
      <trkpt lat="48.61558" lon="1.93012">
        <ele>172</ele>
        <time>2024-01-23T10:12:05Z</time>
      </trkpt>
      <trkpt lat="48.61548" lon="1.93018">
        <ele>171.7</ele>
        <time>2024-01-23T10:12:13Z</time>
      </trkpt>
      <trkpt lat="48.61539" lon="1.93024">
        <ele>171.4</ele>
        <time>2024-01-23T10:12:20Z</time>
      </trkpt>
      <trkpt lat="48.61531" lon="1.93032">
        <ele>171.2</ele>
        <time>2024-01-23T10:12:27Z</time>
      </trkpt>
      <trkpt lat="48.61523" lon="1.9304">
        <ele>171.3</ele>
        <time>2024-01-23T10:12:34Z</time>
      </trkpt>
      <trkpt lat="48.61514" lon="1.93045">
        <ele>171.1</ele>
        <time>2024-01-23T10:12:40Z</time>
      </trkpt>
      <trkpt lat="48.61505" lon="1.93051">
        <ele>171</ele>
        <time>2024-01-23T10:12:48Z</time>
      </trkpt>
      <trkpt lat="48.61496" lon="1.93057">
        <ele>170.9</ele>
        <time>2024-01-23T10:12:55Z</time>
      </trkpt>
      <trkpt lat="48.61487" lon="1.93062">
        <ele>170.5</ele>
        <time>2024-01-23T10:13:01Z</time>
      </trkpt>
      <trkpt lat="48.61479" lon="1.93067">
        <ele>170.2</ele>
        <time>2024-01-23T10:13:08Z</time>
      </trkpt>
      <trkpt lat="48.61472" lon="1.93078">
        <ele>170</ele>
        <time>2024-01-23T10:13:17Z</time>
      </trkpt>
      <trkpt lat="48.61465" lon="1.93087">
        <ele>168.6</ele>
        <time>2024-01-23T10:13:23Z</time>
      </trkpt>
      <trkpt lat="48.61457" lon="1.93095">
        <ele>167.1</ele>
        <time>2024-01-23T10:13:30Z</time>
      </trkpt>
      <trkpt lat="48.6145" lon="1.93104">
        <ele>165.9</ele>
        <time>2024-01-23T10:13:37Z</time>
      </trkpt>
      <trkpt lat="48.61443" lon="1.93113">
        <ele>164.6</ele>
        <time>2024-01-23T10:13:45Z</time>
      </trkpt>
      <trkpt lat="48.61435" lon="1.93123">
        <ele>162.8</ele>
        <time>2024-01-23T10:13:54Z</time>
      </trkpt>
      <trkpt lat="48.61428" lon="1.9313">
        <ele>161.2</ele>
        <time>2024-01-23T10:14:02Z</time>
      </trkpt>
      <trkpt lat="48.61421" lon="1.93139">
        <ele>159.9</ele>
        <time>2024-01-23T10:14:10Z</time>
      </trkpt>
      <trkpt lat="48.61412" lon="1.93145">
        <ele>158</ele>
        <time>2024-01-23T10:14:18Z</time>
      </trkpt>
      <trkpt lat="48.61404" lon="1.93153">
        <ele>156.4</ele>
        <time>2024-01-23T10:14:26Z</time>
      </trkpt>
      <trkpt lat="48.61395" lon="1.9316">
        <ele>155</ele>
        <time>2024-01-23T10:14:36Z</time>
      </trkpt>
      <trkpt lat="48.61387" lon="1.93169">
        <ele>153.5</ele>
        <time>2024-01-23T10:14:45Z</time>
      </trkpt>
      <trkpt lat="48.61381" lon="1.9318">
        <ele>151.9</ele>
        <time>2024-01-23T10:14:53Z</time>
      </trkpt>
      <trkpt lat="48.61378" lon="1.93193">
        <ele>150.9</ele>
        <time>2024-01-23T10:15:01Z</time>
      </trkpt>
      <trkpt lat="48.61371" lon="1.93204">
        <ele>149.6</ele>
        <time>2024-01-23T10:15:10Z</time>
      </trkpt>
      <trkpt lat="48.61364" lon="1.93214">
        <ele>148.5</ele>
        <time>2024-01-23T10:15:18Z</time>
      </trkpt>
      <trkpt lat="48.61357" lon="1.93224">
        <ele>147.1</ele>
        <time>2024-01-23T10:15:26Z</time>
      </trkpt>
      <trkpt lat="48.61351" lon="1.93234">
        <ele>145.6</ele>
        <time>2024-01-23T10:15:35Z</time>
      </trkpt>
      <trkpt lat="48.61344" lon="1.93244">
        <ele>144.3</ele>
        <time>2024-01-23T10:15:45Z</time>
      </trkpt>
      <trkpt lat="48.61339" lon="1.93256">
        <ele>143.4</ele>
        <time>2024-01-23T10:15:53Z</time>
      </trkpt>
      <trkpt lat="48.61336" lon="1.93269">
        <ele>142.6</ele>
        <time>2024-01-23T10:16:01Z</time>
      </trkpt>
      <trkpt lat="48.61334" lon="1.93283">
        <ele>141.9</ele>
        <time>2024-01-23T10:16:10Z</time>
      </trkpt>
      <trkpt lat="48.61331" lon="1.93296">
        <ele>141.1</ele>
        <time>2024-01-23T10:16:19Z</time>
      </trkpt>
      <trkpt lat="48.61327" lon="1.93309">
        <ele>140.4</ele>
        <time>2024-01-23T10:16:27Z</time>
      </trkpt>
      <trkpt lat="48.61324" lon="1.93323">
        <ele>139.7</ele>
        <time>2024-01-23T10:16:34Z</time>
      </trkpt>
      <trkpt lat="48.61321" lon="1.93336">
        <ele>139</ele>
        <time>2024-01-23T10:16:42Z</time>
      </trkpt>
      <trkpt lat="48.61318" lon="1.93349">
        <ele>138.1</ele>
        <time>2024-01-23T10:16:50Z</time>
      </trkpt>
      <trkpt lat="48.6131" lon="1.93357">
        <ele>137.3</ele>
        <time>2024-01-23T10:16:59Z</time>
      </trkpt>
      <trkpt lat="48.61308" lon="1.93372">
        <ele>136.7</ele>
        <time>2024-01-23T10:17:07Z</time>
      </trkpt>
      <trkpt lat="48.61305" lon="1.93387">
        <ele>136.1</ele>
        <time>2024-01-23T10:17:15Z</time>
      </trkpt>
      <trkpt lat="48.61304" lon="1.934">
        <ele>135.5</ele>
        <time>2024-01-23T10:20:28Z</time>
      </trkpt>
      <trkpt lat="48.613" lon="1.93413">
        <ele>134.9</ele>
        <time>2024-01-23T10:20:37Z</time>
      </trkpt>
      <trkpt lat="48.61296" lon="1.93427">
        <ele>134.3</ele>
        <time>2024-01-23T10:20:45Z</time>
      </trkpt>
      <trkpt lat="48.61291" lon="1.9344">
        <ele>133.7</ele>
        <time>2024-01-23T10:20:54Z</time>
      </trkpt>
      <trkpt lat="48.61289" lon="1.93454">
        <ele>133.4</ele>
        <time>2024-01-23T10:21:01Z</time>
      </trkpt>
      <trkpt lat="48.61284" lon="1.93467">
        <ele>133.2</ele>
        <time>2024-01-23T10:21:09Z</time>
      </trkpt>
      <trkpt lat="48.61281" lon="1.9348">
        <ele>133.1</ele>
        <time>2024-01-23T10:21:16Z</time>
      </trkpt>
      <trkpt lat="48.61278" lon="1.93495">
        <ele>133</ele>
        <time>2024-01-23T10:21:23Z</time>
      </trkpt>
      <trkpt lat="48.61275" lon="1.93509">
        <ele>132.8</ele>
        <time>2024-01-23T10:21:30Z</time>
      </trkpt>
      <trkpt lat="48.61272" lon="1.93522">
        <ele>132.6</ele>
        <time>2024-01-23T10:21:36Z</time>
      </trkpt>
      <trkpt lat="48.61268" lon="1.93536">
        <ele>132.1</ele>
        <time>2024-01-23T10:21:43Z</time>
      </trkpt>
      <trkpt lat="48.61266" lon="1.9355">
        <ele>131.7</ele>
        <time>2024-01-23T10:21:50Z</time>
      </trkpt>
      <trkpt lat="48.61263" lon="1.93564">
        <ele>131.3</ele>
        <time>2024-01-23T10:21:56Z</time>
      </trkpt>
      <trkpt lat="48.6126" lon="1.93577">
        <ele>131.1</ele>
        <time>2024-01-23T10:22:03Z</time>
      </trkpt>
      <trkpt lat="48.61257" lon="1.9359">
        <ele>130.8</ele>
        <time>2024-01-23T10:22:10Z</time>
      </trkpt>
      <trkpt lat="48.61254" lon="1.93604">
        <ele>130.2</ele>
        <time>2024-01-23T10:22:16Z</time>
      </trkpt>
      <trkpt lat="48.61251" lon="1.93618">
        <ele>129.8</ele>
        <time>2024-01-23T10:22:22Z</time>
      </trkpt>
      <trkpt lat="48.61247" lon="1.93631">
        <ele>129.2</ele>
        <time>2024-01-23T10:22:29Z</time>
      </trkpt>
      <trkpt lat="48.61245" lon="1.93645">
        <ele>128.8</ele>
        <time>2024-01-23T10:22:36Z</time>
      </trkpt>
      <trkpt lat="48.61243" lon="1.93658">
        <ele>128.7</ele>
        <time>2024-01-23T10:22:43Z</time>
      </trkpt>
      <trkpt lat="48.6124" lon="1.93672">
        <ele>128.6</ele>
        <time>2024-01-23T10:22:50Z</time>
      </trkpt>
      <trkpt lat="48.61236" lon="1.93686">
        <ele>128.5</ele>
        <time>2024-01-23T10:22:57Z</time>
      </trkpt>
      <trkpt lat="48.61232" lon="1.93699">
        <ele>128.3</ele>
        <time>2024-01-23T10:23:03Z</time>
      </trkpt>
      <trkpt lat="48.61227" lon="1.93712">
        <ele>128.2</ele>
        <time>2024-01-23T10:23:11Z</time>
      </trkpt>
      <trkpt lat="48.61224" lon="1.93728">
        <ele>128.1</ele>
        <time>2024-01-23T10:23:17Z</time>
      </trkpt>
      <trkpt lat="48.6122" lon="1.93742">
        <ele>127.8</ele>
        <time>2024-01-23T10:23:24Z</time>
      </trkpt>
      <trkpt lat="48.61219" lon="1.93756">
        <ele>127.8</ele>
        <time>2024-01-23T10:23:30Z</time>
      </trkpt>
      <trkpt lat="48.61216" lon="1.9377">
        <ele>127.6</ele>
        <time>2024-01-23T10:23:37Z</time>
      </trkpt>
      <trkpt lat="48.61212" lon="1.93783">
        <ele>127.3</ele>
        <time>2024-01-23T10:23:44Z</time>
      </trkpt>
      <trkpt lat="48.61208" lon="1.93797">
        <ele>127</ele>
        <time>2024-01-23T10:23:51Z</time>
      </trkpt>
      <trkpt lat="48.61204" lon="1.9381">
        <ele>126.7</ele>
        <time>2024-01-23T10:23:58Z</time>
      </trkpt>
      <trkpt lat="48.612" lon="1.93823">
        <ele>126.4</ele>
        <time>2024-01-23T10:24:05Z</time>
      </trkpt>
      <trkpt lat="48.61195" lon="1.93836">
        <ele>126</ele>
        <time>2024-01-23T10:24:12Z</time>
      </trkpt>
      <trkpt lat="48.61191" lon="1.93849">
        <ele>125.2</ele>
        <time>2024-01-23T10:24:19Z</time>
      </trkpt>
      <trkpt lat="48.61189" lon="1.93864">
        <ele>124.6</ele>
        <time>2024-01-23T10:24:26Z</time>
      </trkpt>
      <trkpt lat="48.61186" lon="1.93879">
        <ele>124.4</ele>
        <time>2024-01-23T10:24:33Z</time>
      </trkpt>
      <trkpt lat="48.61183" lon="1.93893">
        <ele>124.1</ele>
        <time>2024-01-23T10:24:40Z</time>
      </trkpt>
      <trkpt lat="48.61179" lon="1.93906">
        <ele>123.5</ele>
        <time>2024-01-23T10:24:47Z</time>
      </trkpt>
      <trkpt lat="48.61175" lon="1.9392">
        <ele>122.9</ele>
        <time>2024-01-23T10:24:54Z</time>
      </trkpt>
      <trkpt lat="48.61173" lon="1.93933">
        <ele>122.7</ele>
        <time>2024-01-23T10:25:00Z</time>
      </trkpt>
      <trkpt lat="48.61169" lon="1.93946">
        <ele>122.3</ele>
        <time>2024-01-23T10:25:06Z</time>
      </trkpt>
      <trkpt lat="48.61165" lon="1.93959">
        <ele>122</ele>
        <time>2024-01-23T10:25:12Z</time>
      </trkpt>
      <trkpt lat="48.61162" lon="1.93972">
        <ele>121.8</ele>
        <time>2024-01-23T10:25:18Z</time>
      </trkpt>
      <trkpt lat="48.61158" lon="1.93985">
        <ele>122</ele>
        <time>2024-01-23T10:25:24Z</time>
      </trkpt>
      <trkpt lat="48.61151" lon="1.93997">
        <ele>121.8</ele>
        <time>2024-01-23T10:25:31Z</time>
      </trkpt>
      <trkpt lat="48.61145" lon="1.94007">
        <ele>121.4</ele>
        <time>2024-01-23T10:25:38Z</time>
      </trkpt>
      <trkpt lat="48.61139" lon="1.94018">
        <ele>121</ele>
        <time>2024-01-23T10:25:44Z</time>
      </trkpt>
      <trkpt lat="48.61133" lon="1.94031">
        <ele>120.8</ele>
        <time>2024-01-23T10:25:50Z</time>
      </trkpt>
      <trkpt lat="48.61127" lon="1.94043">
        <ele>120.6</ele>
        <time>2024-01-23T10:25:56Z</time>
      </trkpt>
      <trkpt lat="48.61122" lon="1.94055">
        <ele>120.4</ele>
        <time>2024-01-23T10:26:02Z</time>
      </trkpt>
      <trkpt lat="48.61116" lon="1.94065">
        <ele>120.2</ele>
        <time>2024-01-23T10:26:09Z</time>
      </trkpt>
      <trkpt lat="48.6111" lon="1.94077">
        <ele>120</ele>
        <time>2024-01-23T10:26:16Z</time>
      </trkpt>
      <trkpt lat="48.61105" lon="1.94089">
        <ele>119.8</ele>
        <time>2024-01-23T10:26:24Z</time>
      </trkpt>
      <trkpt lat="48.61099" lon="1.94102">
        <ele>119.5</ele>
        <time>2024-01-23T10:26:31Z</time>
      </trkpt>
      <trkpt lat="48.61093" lon="1.94114">
        <ele>119.4</ele>
        <time>2024-01-23T10:26:37Z</time>
      </trkpt>
      <trkpt lat="48.61088" lon="1.94126">
        <ele>119.2</ele>
        <time>2024-01-23T10:26:43Z</time>
      </trkpt>
      <trkpt lat="48.61082" lon="1.94137">
        <ele>118.9</ele>
        <time>2024-01-23T10:26:50Z</time>
      </trkpt>
      <trkpt lat="48.61076" lon="1.9415">
        <ele>118.5</ele>
        <time>2024-01-23T10:26:57Z</time>
      </trkpt>
      <trkpt lat="48.61072" lon="1.94162">
        <ele>118.1</ele>
        <time>2024-01-23T10:27:03Z</time>
      </trkpt>
      <trkpt lat="48.61066" lon="1.94174">
        <ele>117.8</ele>
        <time>2024-01-23T10:27:09Z</time>
      </trkpt>
      <trkpt lat="48.61061" lon="1.94185">
        <ele>117.5</ele>
        <time>2024-01-23T10:27:15Z</time>
      </trkpt>
      <trkpt lat="48.61054" lon="1.94197">
        <ele>117.1</ele>
        <time>2024-01-23T10:27:22Z</time>
      </trkpt>
      <trkpt lat="48.61047" lon="1.94208">
        <ele>117.2</ele>
        <time>2024-01-23T10:27:29Z</time>
      </trkpt>
      <trkpt lat="48.61042" lon="1.94221">
        <ele>117</ele>
        <time>2024-01-23T10:27:36Z</time>
      </trkpt>
      <trkpt lat="48.61036" lon="1.94232">
        <ele>117</ele>
        <time>2024-01-23T10:27:42Z</time>
      </trkpt>
      <trkpt lat="48.6103" lon="1.94242">
        <ele>117</ele>
        <time>2024-01-23T10:27:48Z</time>
      </trkpt>
      <trkpt lat="48.61023" lon="1.94255">
        <ele>117.1</ele>
        <time>2024-01-23T10:27:55Z</time>
      </trkpt>
      <trkpt lat="48.61018" lon="1.94267">
        <ele>117.1</ele>
        <time>2024-01-23T10:28:01Z</time>
      </trkpt>
      <trkpt lat="48.61012" lon="1.9428">
        <ele>117</ele>
        <time>2024-01-23T10:28:08Z</time>
      </trkpt>
      <trkpt lat="48.61006" lon="1.94292">
        <ele>117</ele>
        <time>2024-01-23T10:28:15Z</time>
      </trkpt>
      <trkpt lat="48.61" lon="1.94304">
        <ele>117</ele>
        <time>2024-01-23T10:28:22Z</time>
      </trkpt>
      <trkpt lat="48.60994" lon="1.94316">
        <ele>117.1</ele>
        <time>2024-01-23T10:28:29Z</time>
      </trkpt>
      <trkpt lat="48.60988" lon="1.94328">
        <ele>117.1</ele>
        <time>2024-01-23T10:28:36Z</time>
      </trkpt>
      <trkpt lat="48.60982" lon="1.94339">
        <ele>117</ele>
        <time>2024-01-23T10:28:43Z</time>
      </trkpt>
      <trkpt lat="48.60976" lon="1.9435">
        <ele>117</ele>
        <time>2024-01-23T10:28:50Z</time>
      </trkpt>
      <trkpt lat="48.6097" lon="1.94363">
        <ele>117</ele>
        <time>2024-01-23T10:28:57Z</time>
      </trkpt>
      <trkpt lat="48.60964" lon="1.94375">
        <ele>117</ele>
        <time>2024-01-23T10:29:04Z</time>
      </trkpt>
      <trkpt lat="48.60959" lon="1.94387">
        <ele>117</ele>
        <time>2024-01-23T10:29:11Z</time>
      </trkpt>
      <trkpt lat="48.60953" lon="1.94399">
        <ele>117</ele>
        <time>2024-01-23T10:29:18Z</time>
      </trkpt>
      <trkpt lat="48.60947" lon="1.94408">
        <ele>117</ele>
        <time>2024-01-23T10:29:26Z</time>
      </trkpt>
      <trkpt lat="48.60941" lon="1.9442">
        <ele>117</ele>
        <time>2024-01-23T10:29:35Z</time>
      </trkpt>
      <trkpt lat="48.60935" lon="1.94431">
        <ele>116.8</ele>
        <time>2024-01-23T10:29:42Z</time>
      </trkpt>
      <trkpt lat="48.60929" lon="1.94443">
        <ele>116.5</ele>
        <time>2024-01-23T10:29:49Z</time>
      </trkpt>
      <trkpt lat="48.60923" lon="1.94454">
        <ele>116.2</ele>
        <time>2024-01-23T10:29:57Z</time>
      </trkpt>
      <trkpt lat="48.60918" lon="1.94466">
        <ele>116</ele>
        <time>2024-01-23T10:30:03Z</time>
      </trkpt>
      <trkpt lat="48.60913" lon="1.94478">
        <ele>115.8</ele>
        <time>2024-01-23T10:30:09Z</time>
      </trkpt>
      <trkpt lat="48.60907" lon="1.94489">
        <ele>115.6</ele>
        <time>2024-01-23T10:30:15Z</time>
      </trkpt>
      <trkpt lat="48.60902" lon="1.94501">
        <ele>115.5</ele>
        <time>2024-01-23T10:30:21Z</time>
      </trkpt>
      <trkpt lat="48.60896" lon="1.94512">
        <ele>115.7</ele>
        <time>2024-01-23T10:30:28Z</time>
      </trkpt>
      <trkpt lat="48.6089" lon="1.94523">
        <ele>116</ele>
        <time>2024-01-23T10:30:35Z</time>
      </trkpt>
      <trkpt lat="48.60884" lon="1.94536">
        <ele>116</ele>
        <time>2024-01-23T10:30:42Z</time>
      </trkpt>
      <trkpt lat="48.60878" lon="1.94547">
        <ele>116</ele>
        <time>2024-01-23T10:30:49Z</time>
      </trkpt>
      <trkpt lat="48.60872" lon="1.94559">
        <ele>116</ele>
        <time>2024-01-23T10:30:55Z</time>
      </trkpt>
      <trkpt lat="48.60867" lon="1.94571">
        <ele>116</ele>
        <time>2024-01-23T10:31:01Z</time>
      </trkpt>
      <trkpt lat="48.60862" lon="1.94583">
        <ele>116</ele>
        <time>2024-01-23T10:31:08Z</time>
      </trkpt>
      <trkpt lat="48.60856" lon="1.94597">
        <ele>115.5</ele>
        <time>2024-01-23T10:31:15Z</time>
      </trkpt>
      <trkpt lat="48.6085" lon="1.94608">
        <ele>115.1</ele>
        <time>2024-01-23T10:31:22Z</time>
      </trkpt>
      <trkpt lat="48.60845" lon="1.9462">
        <ele>115</ele>
        <time>2024-01-23T10:31:31Z</time>
      </trkpt>
      <trkpt lat="48.60839" lon="1.94631">
        <ele>115</ele>
        <time>2024-01-23T10:31:39Z</time>
      </trkpt>
      <trkpt lat="48.60832" lon="1.94642">
        <ele>114.9</ele>
        <time>2024-01-23T10:31:46Z</time>
      </trkpt>
      <trkpt lat="48.60826" lon="1.94654">
        <ele>114.5</ele>
        <time>2024-01-23T10:31:54Z</time>
      </trkpt>
      <trkpt lat="48.60819" lon="1.94664">
        <ele>114.1</ele>
        <time>2024-01-23T10:32:02Z</time>
      </trkpt>
      <trkpt lat="48.60813" lon="1.94673">
        <ele>113.9</ele>
        <time>2024-01-23T10:32:09Z</time>
      </trkpt>
      <trkpt lat="48.60807" lon="1.94685">
        <ele>114</ele>
        <time>2024-01-23T10:32:16Z</time>
      </trkpt>
      <trkpt lat="48.608" lon="1.94695">
        <ele>114</ele>
        <time>2024-01-23T10:32:25Z</time>
      </trkpt>
      <trkpt lat="48.60796" lon="1.94707">
        <ele>113.6</ele>
        <time>2024-01-23T10:32:32Z</time>
      </trkpt>
      <trkpt lat="48.60791" lon="1.94719">
        <ele>113.1</ele>
        <time>2024-01-23T10:32:39Z</time>
      </trkpt>
      <trkpt lat="48.60785" lon="1.94732">
        <ele>112.7</ele>
        <time>2024-01-23T10:32:46Z</time>
      </trkpt>
      <trkpt lat="48.60779" lon="1.94744">
        <ele>112.2</ele>
        <time>2024-01-23T10:32:53Z</time>
      </trkpt>
      <trkpt lat="48.60773" lon="1.94755">
        <ele>112.2</ele>
        <time>2024-01-23T10:33:00Z</time>
      </trkpt>
      <trkpt lat="48.60766" lon="1.94766">
        <ele>112.4</ele>
        <time>2024-01-23T10:33:07Z</time>
      </trkpt>
      <trkpt lat="48.6076" lon="1.94778">
        <ele>112.7</ele>
        <time>2024-01-23T10:33:15Z</time>
      </trkpt>
      <trkpt lat="48.60756" lon="1.9479">
        <ele>112.8</ele>
        <time>2024-01-23T10:33:22Z</time>
      </trkpt>
      <trkpt lat="48.60749" lon="1.948">
        <ele>113</ele>
        <time>2024-01-23T10:33:31Z</time>
      </trkpt>
      <trkpt lat="48.60742" lon="1.94808">
        <ele>113</ele>
        <time>2024-01-23T10:33:38Z</time>
      </trkpt>
      <trkpt lat="48.60737" lon="1.94822">
        <ele>113</ele>
        <time>2024-01-23T10:33:47Z</time>
      </trkpt>
      <trkpt lat="48.60732" lon="1.94834">
        <ele>113</ele>
        <time>2024-01-23T10:33:55Z</time>
      </trkpt>
      <trkpt lat="48.60725" lon="1.94845">
        <ele>113</ele>
        <time>2024-01-23T10:34:03Z</time>
      </trkpt>
      <trkpt lat="48.60721" lon="1.94858">
        <ele>113</ele>
        <time>2024-01-23T10:34:10Z</time>
      </trkpt>
      <trkpt lat="48.60715" lon="1.9487">
        <ele>112.7</ele>
        <time>2024-01-23T10:34:19Z</time>
      </trkpt>
      <trkpt lat="48.60711" lon="1.94883">
        <ele>112.2</ele>
        <time>2024-01-23T10:34:26Z</time>
      </trkpt>
      <trkpt lat="48.60706" lon="1.94895">
        <ele>112</ele>
        <time>2024-01-23T10:34:34Z</time>
      </trkpt>
      <trkpt lat="48.60701" lon="1.94907">
        <ele>112</ele>
        <time>2024-01-23T10:34:43Z</time>
      </trkpt>
    </trkseg>
  </trk>
</gpx>